Wetterdaten: Donnerstag, 09.05.2019
Datum Zeit Temp. Aussen Temp. o. S. +5cm Feuchte Auss Luftdruck Regen Sonnenschein Regendauer Solar Windben Empfang
09.05.2019 00:00 9,5 C 9,4 C 7,8 C 94 % 995,1 hPa 0,0 l/m 0 min 0 min 0 W/m 12,9 km/h (3 Bft) 95,74 %
09.05.2019 00:02 9,4 C 9,4 C 7,8 C 94 % 995,1 hPa 0,0 l/m 0 min 0 min 0 W/m 19,3 km/h (3 Bft) 93,55 %
09.05.2019 00:04 9,5 C 9,4 C 7,8 C 94 % 995,0 hPa 0,0 l/m 0 min 0 min 0 W/m 9,7 km/h (2 Bft) 97,83 %
09.05.2019 00:07 9,5 C 9,4 C 7,8 C 94 % 995,1 hPa 0,0 l/m 0 min 0 min 0 W/m 16,1 km/h (3 Bft) 97,83 %
09.05.2019 00:08 9,5 C 9,4 C 7,8 C 94 % 995,1 hPa 0,0 l/m 0 min 0 min 0 W/m 16,1 km/h (3 Bft) 95,74 %
09.05.2019 00:10 9,5 C 9,4 C 7,8 C 94 % 995,1 hPa 0,0 l/m 0 min 0 min 0 W/m 9,7 km/h (2 Bft) 95,74 %
09.05.2019 00:12 9,5 C 9,4 C 7,8 C 94 % 995,0 hPa 0,0 l/m 0 min 0 min 0 W/m 9,7 km/h (2 Bft) 97,87 %
09.05.2019 00:14 9,5 C 9,4 C 7,8 C 93 % 995,0 hPa 0,0 l/m 0 min 0 min 0 W/m 16,1 km/h (3 Bft) 95,74 %
09.05.2019 00:16 9,5 C 9,4 C 7,8 C 93 % 995,1 hPa 0,0 l/m 0 min 0 min 0 W/m 9,7 km/h (2 Bft) 97,83 %
09.05.2019 00:18 9,5 C 9,4 C 7,8 C 93 % 995,1 hPa 0,0 l/m 0 min 0 min 0 W/m 12,9 km/h (3 Bft) 95,74 %
09.05.2019 00:20 9,6 C 9,4 C 7,8 C 93 % 995,1 hPa 0,0 l/m 0 min 0 min 0 W/m 16,1 km/h (3 Bft) 95,74 %
09.05.2019 00:22 9,6 C 9,4 C 7,8 C 93 % 995,1 hPa 0,0 l/m 0 min 0 min 0 W/m 9,7 km/h (2 Bft) 93,62 %
09.05.2019 00:24 9,6 C 9,4 C 7,8 C 93 % 995,1 hPa 0,0 l/m 0 min 0 min 0 W/m 9,7 km/h (2 Bft) 95,74 %
09.05.2019 00:26 9,6 C 9,4 C 7,8 C 93 % 995,1 hPa 0,0 l/m 0 min 0 min 0 W/m 9,7 km/h (2 Bft) 95,74 %
09.05.2019 00:28 9,6 C 9,4 C 7,8 C 93 % 995,1 hPa 0,0 l/m 0 min 0 min 0 W/m 9,7 km/h (2 Bft) 97,83 %
09.05.2019 00:30 9,6 C 9,4 C 7,8 C 93 % 995,1 hPa 0,0 l/m 0 min 0 min 0 W/m 9,7 km/h (2 Bft) 97,87 %
09.05.2019 00:32 9,6 C 9,4 C 7,8 C 92 % 995,1 hPa 0,0 l/m 0 min 0 min 0 W/m 12,9 km/h (3 Bft) 97,87 %
09.05.2019 00:34 9,6 C 9,4 C 7,8 C 93 % 995,1 hPa 0,0 l/m 0 min 0 min 0 W/m 19,3 km/h (3 Bft) 97,87 %
09.05.2019 00:36 9,6 C 9,4 C 7,8 C 92 % 995,1 hPa 0,0 l/m 0 min 0 min 0 W/m 16,1 km/h (3 Bft) 96,55 %
09.05.2019 00:38 9,6 C 9,4 C 7,8 C 92 % 995,1 hPa 0,0 l/m 0 min 0 min 0 W/m 12,9 km/h (3 Bft) 97,22 %
09.05.2019 00:40 9,6 C 9,4 C 7,8 C 92 % 995,1 hPa 0,0 l/m 0 min 0 min 0 W/m 22,5 km/h (4 Bft) 97,83 %
09.05.2019 00:42 9,6 C 9,4 C 7,8 C 92 % 995,1 hPa 0,0 l/m 0 min 0 min 0 W/m 12,9 km/h (3 Bft) 95,74 %
09.05.2019 00:44 9,6 C 9,4 C 7,8 C 92 % 995,1 hPa 0,0 l/m 0 min 0 min 0 W/m 22,5 km/h (4 Bft) 95,74 %
09.05.2019 00:46 9,7 C 9,4 C 7,8 C 92 % 995,1 hPa 0,0 l/m 0 min 0 min 0 W/m 9,7 km/h (2 Bft) 97,87 %
09.05.2019 00:48 9,7 C 9,4 C 7,8 C 92 % 995,1 hPa 0,0 l/m 0 min 0 min 0 W/m 12,9 km/h (3 Bft) 97,87 %
09.05.2019 00:50 9,7 C 9,4 C 7,8 C 92 % 995,0 hPa 0,0 l/m 0 min 0 min 0 W/m 16,1 km/h (3 Bft) 97,87 %
09.05.2019 00:52 9,7 C 9,4 C 7,8 C 91 % 995,1 hPa 0,0 l/m 0 min 0 min 0 W/m 12,9 km/h (3 Bft) 97,83 %
09.05.2019 00:54 9,7 C 9,4 C 7,8 C 91 % 995,2 hPa 0,0 l/m 0 min 0 min 0 W/m 16,1 km/h (3 Bft) 97,87 %
09.05.2019 00:56 9,7 C 9,4 C 7,8 C 91 % 995,1 hPa 0,0 l/m 0 min 0 min 0 W/m 12,9 km/h (3 Bft) 97,87 %
09.05.2019 00:58 9,7 C 9,4 C 7,8 C 91 % 995,1 hPa 0,0 l/m 0 min 0 min 0 W/m 19,3 km/h (3 Bft) 100,00 %
09.05.2019 01:00 9,7 C 9,4 C 7,8 C 91 % 995,1 hPa 0,0 l/m 0 min 0 min 0 W/m 19,3 km/h (3 Bft) 97,87 %
09.05.2019 01:02 9,7 C 9,4 C 7,8 C 91 % 995,1 hPa 0,0 l/m 0 min 0 min 0 W/m 12,9 km/h (3 Bft) 97,87 %
09.05.2019 01:04 9,7 C 9,4 C 7,8 C 91 % 995,1 hPa 0,0 l/m 0 min 0 min 0 W/m 12,9 km/h (3 Bft) 97,83 %
09.05.2019 01:06 9,7 C 9,4 C 7,8 C 91 % 995,1 hPa 0,0 l/m 0 min 0 min 0 W/m 12,9 km/h (3 Bft) 98,31 %
09.05.2019 01:08 9,7 C 9,4 C 7,8 C 91 % 995,1 hPa 0,0 l/m 0 min 0 min 0 W/m 12,9 km/h (3 Bft) 97,14 %
09.05.2019 01:10 9,8 C 9,4 C 7,8 C 91 % 995,1 hPa 0,0 l/m 0 min 0 min 0 W/m 9,7 km/h (2 Bft) 100,00 %
09.05.2019 01:12 9,8 C 9,4 C 7,8 C 91 % 995,1 hPa 0,0 l/m 0 min 0 min 0 W/m 12,9 km/h (3 Bft) 97,87 %
09.05.2019 01:14 9,8 C 9,4 C 7,8 C 91 % 995,1 hPa 0,0 l/m 0 min 0 min 0 W/m 12,9 km/h (3 Bft) 100,00 %
09.05.2019 01:16 9,8 C 9,4 C 7,8 C 91 % 995,1 hPa 0,0 l/m 0 min 0 min 0 W/m 6,4 km/h (2 Bft) 100,00 %
09.05.2019 01:18 9,8 C 9,4 C 7,8 C 91 % 995,1 hPa 0,0 l/m 0 min 0 min 0 W/m 19,3 km/h (3 Bft) 100,00 %
09.05.2019 01:20 9,8 C 9,4 C 7,8 C 91 % 995,1 hPa 0,0 l/m 0 min 0 min 0 W/m 16,1 km/h (3 Bft) 100,00 %
09.05.2019 01:22 9,8 C 9,4 C 7,8 C 91 % 995,0 hPa 0,0 l/m 0 min 0 min 0 W/m 16,1 km/h (3 Bft) 97,87 %
09.05.2019 01:24 9,8 C 9,4 C 7,8 C 91 % 995,1 hPa 0,0 l/m 0 min 0 min 0 W/m 12,9 km/h (3 Bft) 100,00 %
09.05.2019 01:26 9,8 C 9,4 C 7,8 C 91 % 995,0 hPa 0,0 l/m 0 min 0 min 0 W/m 12,9 km/h (3 Bft) 100,00 %
09.05.2019 01:28 9,8 C 9,4 C 7,8 C 91 % 995,2 hPa 0,0 l/m 0 min 0 min 0 W/m 12,9 km/h (3 Bft) 100,00 %
09.05.2019 01:30 9,8 C 9,4 C 7,8 C 91 % 995,2 hPa 0,0 l/m 0 min 0 min 0 W/m 12,9 km/h (3 Bft) 100,00 %
09.05.2019 01:32 9,8 C 9,4 C 7,8 C 91 % 995,1 hPa 0,0 l/m 0 min 0 min 0 W/m 12,9 km/h (3 Bft) 100,00 %
09.05.2019 01:34 9,8 C 9,4 C 7,8 C 91 % 995,1 hPa 0,0 l/m 0 min 0 min 0 W/m 16,1 km/h (3 Bft) 100,00 %
09.05.2019 01:36 9,8 C 9,4 C 7,8 C 91 % 995,1 hPa 0,0 l/m 0 min 0 min 0 W/m 19,3 km/h (3 Bft) 98,28 %
09.05.2019 01:38 9,8 C 9,4 C 7,8 C 91 % 995,1 hPa 0,0 l/m 0 min 0 min 0 W/m 12,9 km/h (3 Bft) 100,00 %
09.05.2019 01:40 9,8 C 8,9 C 7,8 C 91 % 995,1 hPa 0,0 l/m 0 min 0 min 0 W/m 9,7 km/h (2 Bft) 100,00 %
09.05.2019 01:42 9,8 C 8,9 C 7,8 C 91 % 995,2 hPa 0,0 l/m 0 min 0 min 0 W/m 16,1 km/h (3 Bft) 100,00 %
09.05.2019 01:44 9,8 C 8,9 C 7,8 C 91 % 995,2 hPa 0,0 l/m 0 min 0 min 0 W/m 9,7 km/h (2 Bft) 100,00 %
09.05.2019 01:46 9,8 C 8,9 C 7,8 C 91 % 995,1 hPa 0,0 l/m 0 min 0 min 0 W/m 12,9 km/h (3 Bft) 100,00 %
09.05.2019 01:48 9,7 C 8,9 C 7,8 C 91 % 995,1 hPa 0,0 l/m 0 min 0 min 0 W/m 12,9 km/h (3 Bft) 100,00 %
09.05.2019 01:50 9,7 C 8,9 C 7,8 C 91 % 995,1 hPa 0,0 l/m 0 min 0 min 0 W/m 12,9 km/h (3 Bft) 100,00 %
09.05.2019 01:52 9,7 C 8,9 C 7,8 C 91 % 995,1 hPa 0,0 l/m 0 min 0 min 0 W/m 19,3 km/h (3 Bft) 100,00 %
09.05.2019 01:54 9,7 C 8,9 C 7,8 C 91 % 995,1 hPa 0,0 l/m 0 min 0 min 0 W/m 12,9 km/h (3 Bft) 100,00 %
09.05.2019 01:56 9,7 C 8,9 C 7,8 C 91 % 995,1 hPa 0,0 l/m 0 min 0 min 0 W/m 12,9 km/h (3 Bft) 97,87 %
09.05.2019 01:58 9,7 C 9,4 C 7,8 C 91 % 995,1 hPa 0,0 l/m 0 min 0 min 0 W/m 19,3 km/h (3 Bft) 98,00 %
09.05.2019 02:00 9,7 C 9,4 C 7,8 C 91 % 995,1 hPa 0,0 l/m 0 min 0 min 0 W/m 9,7 km/h (2 Bft) 97,83 %
09.05.2019 02:02 9,7 C 9,4 C 7,8 C 91 % 995,1 hPa 0,0 l/m 0 min 0 min 0 W/m 12,9 km/h (3 Bft) 97,87 %
09.05.2019 02:04 9,7 C 9,4 C 7,8 C 91 % 995,1 hPa 0,0 l/m 0 min 0 min 0 W/m 16,1 km/h (3 Bft) 97,87 %
09.05.2019 02:06 9,7 C 9,4 C 7,8 C 91 % 995,1 hPa 0,0 l/m 0 min 0 min 0 W/m 12,9 km/h (3 Bft) 96,61 %
09.05.2019 02:08 9,7 C 9,4 C 7,8 C 91 % 995,1 hPa 0,0 l/m 0 min 0 min 0 W/m 9,7 km/h (2 Bft) 97,14 %
09.05.2019 02:10 9,7 C 8,9 C 7,8 C 91 % 995,0 hPa 0,0 l/m 0 min 0 min 0 W/m 12,9 km/h (3 Bft) 97,87 %
09.05.2019 02:12 9,7 C 8,9 C 7,8 C 91 % 995,1 hPa 0,0 l/m 0 min 0 min 0 W/m 12,9 km/h (3 Bft) 95,65 %
09.05.2019 02:14 9,7 C 8,9 C 7,8 C 91 % 995,1 hPa 0,0 l/m 0 min 0 min 0 W/m 9,7 km/h (2 Bft) 97,87 %
09.05.2019 02:16 9,7 C 9,4 C 7,8 C 91 % 995,1 hPa 0,0 l/m 0 min 0 min 0 W/m 19,3 km/h (3 Bft) 95,74 %
09.05.2019 02:18 9,7 C 9,4 C 7,8 C 91 % 995,1 hPa 0,0 l/m 0 min 0 min 0 W/m 9,7 km/h (2 Bft) 97,87 %
09.05.2019 02:20 9,7 C 9,4 C 7,8 C 91 % 995,1 hPa 0,0 l/m 0 min 0 min 0 W/m 12,9 km/h (3 Bft) 97,87 %
09.05.2019 02:22 9,7 C 8,9 C 7,8 C 91 % 995,1 hPa 0,0 l/m 0 min 0 min 0 W/m 6,4 km/h (2 Bft) 97,87 %
09.05.2019 02:24 9,7 C 8,9 C 7,8 C 91 % 995,1 hPa 0,0 l/m 0 min 0 min 0 W/m 9,7 km/h (2 Bft) 95,65 %
09.05.2019 02:26 9,7 C 8,9 C 7,8 C 91 % 995,0 hPa 0,0 l/m 0 min 0 min 0 W/m 12,9 km/h (3 Bft) 93,62 %
09.05.2019 02:28 9,7 C 8,9 C 7,8 C 91 % 995,1 hPa 0,0 l/m 0 min 0 min 0 W/m 12,9 km/h (3 Bft) 97,87 %
09.05.2019 02:30 9,6 C 8,9 C 7,8 C 91 % 995,2 hPa 0,0 l/m 0 min 0 min 0 W/m 9,7 km/h (2 Bft) 97,87 %
09.05.2019 02:32 9,6 C 8,9 C 7,8 C 91 % 995,2 hPa 0,0 l/m 0 min 0 min 0 W/m 12,9 km/h (3 Bft) 97,87 %
09.05.2019 02:34 9,6 C 8,9 C 7,8 C 91 % 995,2 hPa 0,0 l/m 0 min 0 min 0 W/m 9,7 km/h (2 Bft) 95,74 %
09.05.2019 02:36 9,6 C 8,9 C 7,8 C 91 % 995,2 hPa 0,0 l/m 0 min 0 min 0 W/m 6,4 km/h (2 Bft) 96,55 %
09.05.2019 02:38 9,6 C 8,9 C 7,8 C 91 % 995,2 hPa 0,0 l/m 0 min 0 min 0 W/m 9,7 km/h (2 Bft) 97,14 %
09.05.2019 02:40 9,6 C 8,9 C 7,8 C 91 % 995,1 hPa 0,0 l/m 0 min 0 min 0 W/m 12,9 km/h (3 Bft) 95,74 %
09.05.2019 02:42 9,6 C 8,9 C 7,8 C 91 % 995,2 hPa 0,0 l/m 0 min 0 min 0 W/m 16,1 km/h (3 Bft) 97,96 %
09.05.2019 02:44 9,6 C 8,9 C 7,8 C 91 % 995,1 hPa 0,0 l/m 0 min 0 min 0 W/m 9,7 km/h (2 Bft) 95,74 %
09.05.2019 02:46 9,6 C 8,9 C 7,8 C 91 % 995,2 hPa 0,0 l/m 0 min 0 min 0 W/m 9,7 km/h (2 Bft) 97,87 %
09.05.2019 02:48 9,6 C 8,9 C 7,8 C 91 % 995,2 hPa 0,0 l/m 0 min 0 min 0 W/m 9,7 km/h (2 Bft) 95,74 %
09.05.2019 02:50 9,6 C 8,9 C 7,8 C 91 % 995,2 hPa 0,0 l/m 0 min 0 min 0 W/m 12,9 km/h (3 Bft) 97,83 %
09.05.2019 02:52 9,6 C 8,9 C 7,8 C 91 % 995,2 hPa 0,0 l/m 0 min 0 min 0 W/m 12,9 km/h (3 Bft) 97,87 %
09.05.2019 02:54 9,6 C 8,9 C 7,8 C 91 % 995,2 hPa 0,0 l/m 0 min 0 min 0 W/m 9,7 km/h (2 Bft) 97,87 %
09.05.2019 02:56 9,6 C 8,9 C 7,8 C 91 % 995,2 hPa 0,0 l/m 0 min 0 min 0 W/m 12,9 km/h (3 Bft) 97,87 %
09.05.2019 02:58 9,6 C 8,9 C 8,3 C 90 % 995,1 hPa 0,0 l/m 0 min 0 min 0 W/m 9,7 km/h (2 Bft) 97,87 %
09.05.2019 03:00 9,5 C 8,9 C 8,3 C 90 % 995,1 hPa 0,0 l/m 0 min 0 min 0 W/m 9,7 km/h (2 Bft) 97,87 %
09.05.2019 03:02 9,5 C 8,9 C 8,3 C 90 % 995,1 hPa 0,0 l/m 0 min 0 min 0 W/m 16,1 km/h (3 Bft) 97,83 %
09.05.2019 03:04 9,5 C 8,9 C 8,3 C 90 % 995,2 hPa 0,0 l/m 0 min 0 min 0 W/m 12,9 km/h (3 Bft) 95,74 %
09.05.2019 03:06 9,4 C 8,9 C 8,3 C 90 % 995,1 hPa 0,0 l/m 0 min 0 min 0 W/m 16,1 km/h (3 Bft) 98,31 %
09.05.2019 03:08 9,4 C 8,9 C 8,3 C 90 % 995,1 hPa 0,0 l/m 0 min 0 min 0 W/m 16,1 km/h (3 Bft) 97,14 %
09.05.2019 03:10 9,4 C 8,9 C 8,3 C 90 % 995,1 hPa 0,0 l/m 0 min 0 min 0 W/m 9,7 km/h (2 Bft) 97,87 %
09.05.2019 03:12 9,4 C 8,9 C 8,3 C 90 % 995,0 hPa 0,0 l/m 0 min 0 min 0 W/m 9,7 km/h (2 Bft) 97,87 %
09.05.2019 03:14 9,4 C 8,9 C 8,3 C 90 % 995,2 hPa 0,0 l/m 0 min 0 min 0 W/m 16,1 km/h (3 Bft) 100,00 %
09.05.2019 03:16 9,4 C 8,9 C 8,3 C 90 % 994,9 hPa 0,0 l/m 0 min 0 min 0 W/m 9,7 km/h (2 Bft) 95,74 %
09.05.2019 03:18 9,4 C 8,9 C 8,3 C 90 % 995,0 hPa 0,0 l/m 0 min 0 min 0 W/m 12,9 km/h (3 Bft) 97,87 %
09.05.2019 03:20 9,4 C 8,9 C 8,3 C 90 % 995,0 hPa 0,0 l/m 0 min 0 min 0 W/m 9,7 km/h (2 Bft) 95,74 %
09.05.2019 03:22 9,3 C 8,3 C 7,8 C 89 % 995,1 hPa 0,0 l/m 0 min 0 min 0 W/m 12,9 km/h (3 Bft) 97,87 %
09.05.2019 03:24 9,3 C 8,9 C 8,3 C 89 % 995,1 hPa 0,0 l/m 0 min 0 min 0 W/m 12,9 km/h (3 Bft) 100,00 %
09.05.2019 03:26 9,3 C 8,9 C 8,3 C 89 % 995,1 hPa 0,0 l/m 0 min 0 min 0 W/m 12,9 km/h (3 Bft) 100,00 %
09.05.2019 03:28 9,3 C 8,9 C 7,8 C 89 % 995,1 hPa 0,0 l/m 0 min 0 min 0 W/m 16,1 km/h (3 Bft) 100,00 %
09.05.2019 03:30 9,3 C 8,3 C 7,8 C 89 % 995,1 hPa 0,0 l/m 0 min 0 min 0 W/m 12,9 km/h (3 Bft) 95,74 %
09.05.2019 03:32 9,3 C 8,3 C 7,8 C 89 % 995,0 hPa 0,0 l/m 0 min 0 min 0 W/m 12,9 km/h (3 Bft) 97,87 %
09.05.2019 03:34 9,3 C 8,3 C 7,8 C 89 % 995,1 hPa 0,0 l/m 0 min 0 min 0 W/m 9,7 km/h (2 Bft) 95,74 %
09.05.2019 03:36 9,2 C 8,3 C 7,8 C 89 % 995,1 hPa 0,0 l/m 0 min 0 min 0 W/m 9,7 km/h (2 Bft) 98,28 %
09.05.2019 03:38 9,2 C 8,3 C 7,8 C 89 % 995,0 hPa 0,0 l/m 0 min 0 min 0 W/m 12,9 km/h (3 Bft) 97,14 %
09.05.2019 03:40 9,2 C 8,3 C 7,8 C 89 % 995,0 hPa 0,0 l/m 0 min 0 min 0 W/m 12,9 km/h (3 Bft) 97,87 %
09.05.2019 03:42 9,2 C 8,3 C 7,8 C 89 % 995,1 hPa 0,0 l/m 0 min 0 min 0 W/m 12,9 km/h (3 Bft) 97,87 %
09.05.2019 03:44 9,2 C 8,3 C 7,8 C 89 % 995,1 hPa 0,0 l/m 0 min 0 min 0 W/m 12,9 km/h (3 Bft) 97,87 %
09.05.2019 03:46 9,2 C 8,3 C 7,8 C 89 % 995,1 hPa 0,0 l/m 0 min 0 min 0 W/m 12,9 km/h (3 Bft) 97,87 %
09.05.2019 03:48 9,2 C 8,3 C 7,8 C 89 % 995,1 hPa 0,0 l/m 0 min 0 min 0 W/m 16,1 km/h (3 Bft) 97,87 %
09.05.2019 03:50 9,1 C 8,3 C 7,8 C 89 % 995,1 hPa 0,0 l/m 0 min 0 min 0 W/m 9,7 km/h (2 Bft) 97,83 %
09.05.2019 03:52 9,1 C 8,3 C 7,8 C 89 % 995,1 hPa 0,0 l/m 0 min 0 min 0 W/m 12,9 km/h (3 Bft) 97,87 %
09.05.2019 03:54 9,1 C 8,3 C 7,8 C 89 % 995,1 hPa 0,0 l/m 0 min 0 min 0 W/m 9,7 km/h (2 Bft) 97,87 %
09.05.2019 03:56 9,1 C 8,3 C 7,8 C 89 % 995,1 hPa 0,0 l/m 0 min 0 min 0 W/m 9,7 km/h (2 Bft) 97,87 %
09.05.2019 03:58 9,1 C 8,3 C 7,8 C 89 % 995,1 hPa 0,0 l/m 0 min 0 min 0 W/m 12,9 km/h (3 Bft) 97,87 %
09.05.2019 04:00 9,1 C 8,3 C 7,2 C 89 % 995,0 hPa 0,0 l/m 0 min 0 min 0 W/m 6,4 km/h (2 Bft) 97,83 %
09.05.2019 04:02 9,1 C 8,3 C 7,2 C 89 % 995,1 hPa 0,0 l/m 0 min 0 min 0 W/m 12,9 km/h (3 Bft) 100,00 %
09.05.2019 04:04 9,0 C 8,3 C 7,2 C 89 % 995,1 hPa 0,0 l/m 0 min 0 min 0 W/m 12,9 km/h (3 Bft) 100,00 %
09.05.2019 04:06 9,0 C 8,3 C 7,8 C 89 % 995,1 hPa 0,0 l/m 0 min 0 min 0 W/m 12,9 km/h (3 Bft) 98,31 %
09.05.2019 04:08 9,0 C 8,3 C 7,8 C 89 % 995,1 hPa 0,0 l/m 0 min 0 min 0 W/m 9,7 km/h (2 Bft) 97,14 %
09.05.2019 04:10 8,9 C 8,3 C 7,8 C 89 % 995,1 hPa 0,0 l/m 0 min 0 min 0 W/m 9,7 km/h (2 Bft) 95,74 %
09.05.2019 04:12 8,9 C 8,3 C 7,8 C 89 % 995,1 hPa 0,0 l/m 0 min 0 min 0 W/m 9,7 km/h (2 Bft) 97,83 %
09.05.2019 04:14 8,9 C 8,3 C 7,8 C 89 % 995,1 hPa 0,0 l/m 0 min 0 min 0 W/m 6,4 km/h (2 Bft) 97,87 %
09.05.2019 04:16 8,9 C 7,8 C 7,8 C 89 % 995,1 hPa 0,0 l/m 0 min 0 min 0 W/m 6,4 km/h (2 Bft) 97,87 %
09.05.2019 04:18 8,9 C 7,8 C 7,2 C 89 % 995,0 hPa 0,0 l/m 0 min 0 min 0 W/m 6,4 km/h (2 Bft) 97,87 %
09.05.2019 04:20 8,9 C 7,8 C 7,2 C 89 % 995,1 hPa 0,0 l/m 0 min 0 min 0 W/m 6,4 km/h (2 Bft) 97,87 %
09.05.2019 04:22 8,9 C 7,8 C 7,2 C 89 % 995,1 hPa 0,0 l/m 0 min 0 min 0 W/m 6,4 km/h (2 Bft) 97,87 %
09.05.2019 04:24 8,9 C 7,8 C 7,2 C 89 % 995,0 hPa 0,0 l/m 0 min 0 min 0 W/m 6,4 km/h (2 Bft) 97,83 %
09.05.2019 04:26 8,8 C 7,8 C 7,2 C 89 % 995,0 hPa 0,0 l/m 0 min 0 min 0 W/m 9,7 km/h (2 Bft) 97,87 %
09.05.2019 04:28 8,8 C 7,8 C 7,2 C 89 % 995,0 hPa 0,0 l/m 0 min 0 min 0 W/m 9,7 km/h (2 Bft) 100,00 %
09.05.2019 04:30 8,8 C 7,8 C 7,2 C 89 % 995,0 hPa 0,0 l/m 0 min 0 min 0 W/m 6,4 km/h (2 Bft) 100,00 %
09.05.2019 04:32 8,8 C 7,2 C 7,2 C 89 % 995,0 hPa 0,0 l/m 0 min 0 min 0 W/m 6,4 km/h (2 Bft) 97,87 %
09.05.2019 04:34 8,7 C 7,2 C 6,7 C 89 % 995,0 hPa 0,0 l/m 0 min 0 min 0 W/m 9,7 km/h (2 Bft) 97,87 %
09.05.2019 04:36 8,7 C 7,2 C 6,7 C 89 % 995,0 hPa 0,0 l/m 0 min 0 min 0 W/m 6,4 km/h (2 Bft) 98,28 %
09.05.2019 04:38 8,7 C 7,2 C 6,7 C 89 % 995,0 hPa 0,0 l/m 0 min 0 min 0 W/m 9,7 km/h (2 Bft) 97,14 %
09.05.2019 04:40 8,7 C 7,2 C 6,7 C 89 % 995,0 hPa 0,0 l/m 0 min 0 min 0 W/m 9,7 km/h (2 Bft) 97,87 %
09.05.2019 04:42 8,6 C 7,2 C 6,7 C 89 % 994,9 hPa 0,0 l/m 0 min 0 min 0 W/m 6,4 km/h (2 Bft) 93,62 %
09.05.2019 04:44 8,6 C 7,2 C 6,7 C 89 % 994,9 hPa 0,0 l/m 0 min 0 min 0 W/m 9,7 km/h (2 Bft) 97,87 %
09.05.2019 04:46 8,6 C 7,2 C 6,7 C 89 % 994,9 hPa 0,0 l/m 0 min 0 min 0 W/m 9,7 km/h (2 Bft) 95,74 %
09.05.2019 04:48 8,5 C 7,2 C 6,7 C 89 % 994,9 hPa 0,0 l/m 0 min 0 min 0 W/m 6,4 km/h (2 Bft) 97,83 %
09.05.2019 04:50 8,5 C 7,2 C 6,7 C 89 % 994,9 hPa 0,0 l/m 0 min 0 min 0 W/m 6,4 km/h (2 Bft) 97,87 %
09.05.2019 04:52 8,5 C 7,2 C 6,7 C 89 % 994,9 hPa 0,0 l/m 0 min 0 min 0 W/m 3,2 km/h (1 Bft) 95,74 %
09.05.2019 04:54 8,4 C 7,2 C 6,7 C 89 % 994,8 hPa 0,0 l/m 0 min 0 min 0 W/m 6,4 km/h (2 Bft) 97,87 %
09.05.2019 04:56 8,4 C 7,2 C 6,7 C 89 % 994,8 hPa 0,0 l/m 0 min 0 min 0 W/m 6,4 km/h (2 Bft) 97,87 %
09.05.2019 04:58 8,4 C 7,2 C 6,7 C 89 % 994,8 hPa 0,0 l/m 0 min 0 min 0 W/m 6,4 km/h (2 Bft) 97,83 %
09.05.2019 05:00 8,4 C 7,2 C 6,7 C 89 % 994,7 hPa 0,0 l/m 0 min 0 min 0 W/m 6,4 km/h (2 Bft) 95,74 %
09.05.2019 05:02 8,3 C 7,2 C 6,7 C 90 % 994,8 hPa 0,0 l/m 0 min 0 min 0 W/m 3,2 km/h (1 Bft) 97,87 %
09.05.2019 05:04 8,3 C 6,7 C 6,1 C 90 % 994,8 hPa 0,0 l/m 0 min 0 min 0 W/m 6,4 km/h (2 Bft) 95,74 %
09.05.2019 05:05 8,3 C 6,7 C 6,1 C 90 % 994,8 hPa 0,0 l/m 0 min 0 min 0 W/m 9,7 km/h (2 Bft) 99,12 %
09.05.2019 05:10 8,2 C 6,7 C 6,1 C 90 % 994,8 hPa 0,0 l/m 0 min 0 min 0 W/m 9,7 km/h (2 Bft) 99,12 %
09.05.2019 05:12 8,2 C 6,7 C 6,1 C 90 % 994,7 hPa 0,0 l/m 0 min 0 min 0 W/m 6,4 km/h (2 Bft) 94,29 %
09.05.2019 05:14 8,2 C 6,7 C 6,1 C 90 % 994,8 hPa 0,0 l/m 0 min 0 min 0 W/m 6,4 km/h (2 Bft) 93,62 %
09.05.2019 05:19 8,1 C 6,7 C 6,1 C 90 % 994,7 hPa 0,0 l/m 0 min 0 min 0 W/m 9,7 km/h (2 Bft) 96,55 %
09.05.2019 05:20 8,1 C 6,7 C 6,1 C 90 % 994,7 hPa 0,0 l/m 0 min 0 min 0 W/m 6,4 km/h (2 Bft) 100,00 %
09.05.2019 05:22 8,0 C 6,7 C 6,1 C 90 % 994,7 hPa 0,0 l/m 0 min 0 min 0 W/m 9,7 km/h (2 Bft) 95,74 %
09.05.2019 05:24 8,0 C 6,7 C 6,1 C 90 % 994,8 hPa 0,0 l/m 0 min 0 min 0 W/m 6,4 km/h (2 Bft) 97,87 %
09.05.2019 05:26 7,9 C 6,7 C 6,1 C 90 % 994,8 hPa 0,0 l/m 0 min 0 min 0 W/m 9,7 km/h (2 Bft) 95,65 %
09.05.2019 05:28 7,9 C 6,7 C 6,1 C 91 % 994,6 hPa 0,0 l/m 0 min 0 min 0 W/m 6,4 km/h (2 Bft) 95,74 %
09.05.2019 05:30 7,9 C 6,7 C 6,1 C 91 % 994,6 hPa 0,0 l/m 0 min 0 min 0 W/m 9,7 km/h (2 Bft) 97,87 %
09.05.2019 05:32 7,8 C 6,7 C 6,1 C 91 % 994,5 hPa 0,0 l/m 0 min 0 min 0 W/m 16,1 km/h (3 Bft) 97,87 %
09.05.2019 05:34 7,8 C 6,7 C 6,1 C 91 % 994,5 hPa 0,0 l/m 0 min 0 min 0 W/m 9,7 km/h (2 Bft) 95,74 %
09.05.2019 05:36 7,8 C 6,7 C 6,1 C 91 % 994,6 hPa 0,0 l/m 0 min 0 min 0 W/m 6,4 km/h (2 Bft) 97,87 %
09.05.2019 05:38 7,7 C 6,7 C 6,1 C 91 % 994,5 hPa 0,0 l/m 0 min 0 min 0 W/m 9,7 km/h (2 Bft) 97,83 %
09.05.2019 05:40 7,7 C 6,7 C 6,1 C 91 % 994,5 hPa 0,0 l/m 0 min 0 min 0 W/m 6,4 km/h (2 Bft) 97,87 %
09.05.2019 05:42 7,7 C 6,7 C 6,1 C 91 % 994,4 hPa 0,0 l/m 0 min 0 min 0 W/m 12,9 km/h (3 Bft) 97,87 %
09.05.2019 05:44 7,7 C 6,7 C 6,1 C 91 % 994,4 hPa 0,0 l/m 0 min 0 min 0 W/m 9,7 km/h (2 Bft) 97,87 %
09.05.2019 05:46 7,6 C 6,7 C 6,1 C 92 % 994,4 hPa 0,0 l/m 0 min 0 min 0 W/m 9,7 km/h (2 Bft) 97,87 %
09.05.2019 05:48 7,6 C 6,7 C 6,1 C 92 % 994,4 hPa 0,0 l/m 0 min 0 min 0 W/m 9,7 km/h (2 Bft) 95,74 %
09.05.2019 05:50 7,6 C 6,7 C 6,1 C 92 % 994,4 hPa 0,0 l/m 0 min 0 min 0 W/m 9,7 km/h (2 Bft) 97,83 %
09.05.2019 05:52 7,5 C 6,7 C 6,1 C 92 % 994,4 hPa 0,0 l/m 0 min 0 min 0 W/m 9,7 km/h (2 Bft) 97,87 %
09.05.2019 05:54 7,5 C 6,7 C 6,1 C 92 % 994,4 hPa 0,0 l/m 0 min 0 min 0 W/m 6,4 km/h (2 Bft) 97,87 %
09.05.2019 05:56 7,5 C 6,7 C 6,1 C 92 % 994,4 hPa 0,0 l/m 0 min 0 min 0 W/m 9,7 km/h (2 Bft) 97,87 %
09.05.2019 05:58 7,4 C 6,7 C 6,1 C 92 % 994,4 hPa 0,0 l/m 0 min 0 min 1 W/m 12,9 km/h (3 Bft) 95,74 %
09.05.2019 06:00 7,4 C 6,7 C 6,1 C 92 % 994,4 hPa 0,0 l/m 0 min 0 min 5 W/m 9,7 km/h (2 Bft) 94,29 %
09.05.2019 06:02 7,4 C 6,7 C 6,1 C 92 % 994,3 hPa 0,0 l/m 0 min 0 min 5 W/m 9,7 km/h (2 Bft) 96,49 %
09.05.2019 06:04 7,4 C 6,7 C 6,1 C 92 % 994,3 hPa 0,0 l/m 0 min 0 min 6 W/m 12,9 km/h (3 Bft) 97,87 %
09.05.2019 06:08 7,4 C 6,7 C 6,1 C 93 % 994,4 hPa 0,0 l/m 0 min 0 min 8 W/m 9,7 km/h (2 Bft) 97,85 %
09.05.2019 06:10 7,4 C 6,7 C 6,1 C 93 % 994,4 hPa 0,0 l/m 0 min 0 min 10 W/m 9,7 km/h (2 Bft) 100,00 %
09.05.2019 06:12 7,3 C 6,7 C 6,1 C 93 % 994,4 hPa 0,0 l/m 0 min 0 min 11 W/m 9,7 km/h (2 Bft) 100,00 %
09.05.2019 06:14 7,3 C 6,7 C 6,1 C 93 % 994,5 hPa 0,0 l/m 0 min 0 min 13 W/m 6,4 km/h (2 Bft) 100,00 %
09.05.2019 06:16 7,3 C 6,7 C 6,1 C 93 % 994,5 hPa 0,0 l/m 0 min 0 min 14 W/m 12,9 km/h (3 Bft) 100,00 %
09.05.2019 06:18 7,3 C 6,7 C 6,1 C 93 % 994,4 hPa 0,0 l/m 0 min 0 min 16 W/m 9,7 km/h (2 Bft) 100,00 %
09.05.2019 06:20 7,3 C 6,7 C 6,1 C 93 % 994,4 hPa 0,0 l/m 0 min 0 min 16 W/m 6,4 km/h (2 Bft) 100,00 %
09.05.2019 06:22 7,3 C 6,7 C 6,1 C 93 % 994,5 hPa 0,0 l/m 0 min 0 min 16 W/m 6,4 km/h (2 Bft) 100,00 %
09.05.2019 06:24 7,3 C 6,7 C 6,1 C 93 % 994,5 hPa 0,0 l/m 0 min 0 min 16 W/m 16,1 km/h (3 Bft) 100,00 %
09.05.2019 06:26 7,3 C 6,7 C 6,1 C 93 % 994,5 hPa 0,0 l/m 0 min 0 min 18 W/m 9,7 km/h (2 Bft) 97,87 %
09.05.2019 06:28 7,3 C 6,7 C 6,1 C 93 % 994,5 hPa 0,0 l/m 0 min 0 min 16 W/m 16,1 km/h (3 Bft) 100,00 %
09.05.2019 06:30 7,3 C 6,7 C 6,1 C 93 % 994,6 hPa 0,0 l/m 0 min 0 min 16 W/m 19,3 km/h (3 Bft) 100,00 %
09.05.2019 06:32 7,3 C 6,7 C 6,1 C 93 % 994,6 hPa 0,0 l/m 0 min 0 min 18 W/m 9,7 km/h (2 Bft) 97,92 %
09.05.2019 06:34 7,3 C 6,7 C 6,1 C 94 % 994,6 hPa 0,0 l/m 0 min 0 min 18 W/m 9,7 km/h (2 Bft) 100,00 %
09.05.2019 06:36 7,3 C 6,7 C 6,1 C 94 % 994,6 hPa 0,0 l/m 0 min 0 min 19 W/m 6,4 km/h (2 Bft) 97,87 %
09.05.2019 06:38 7,3 C 6,7 C 6,1 C 94 % 994,6 hPa 0,0 l/m 0 min 0 min 21 W/m 3,2 km/h (1 Bft) 100,00 %
09.05.2019 06:40 7,3 C 6,7 C 6,1 C 94 % 994,5 hPa 0,0 l/m 0 min 0 min 24 W/m 9,7 km/h (2 Bft) 97,83 %
09.05.2019 06:42 7,3 C 6,7 C 6,1 C 94 % 994,5 hPa 0,0 l/m 0 min 0 min 30 W/m 3,2 km/h (1 Bft) 100,00 %
09.05.2019 06:44 7,3 C 7,2 C 6,7 C 94 % 994,6 hPa 0,0 l/m 0 min 0 min 36 W/m 12,9 km/h (3 Bft) 97,87 %
09.05.2019 06:46 7,3 C 7,2 C 6,7 C 94 % 994,6 hPa 0,0 l/m 0 min 0 min 41 W/m 12,9 km/h (3 Bft) 100,00 %
09.05.2019 06:48 7,3 C 7,2 C 6,7 C 94 % 994,6 hPa 0,0 l/m 0 min 0 min 44 W/m 9,7 km/h (2 Bft) 100,00 %
09.05.2019 06:50 7,4 C 7,2 C 6,7 C 94 % 994,6 hPa 0,0 l/m 0 min 0 min 43 W/m 9,7 km/h (2 Bft) 100,00 %
09.05.2019 06:52 7,4 C 7,8 C 7,2 C 94 % 994,6 hPa 0,0 l/m 0 min 0 min 42 W/m 16,1 km/h (3 Bft) 100,00 %
09.05.2019 06:54 7,4 C 7,8 C 7,2 C 94 % 994,6 hPa 0,0 l/m 0 min 0 min 46 W/m 16,1 km/h (3 Bft) 100,00 %
09.05.2019 06:56 7,5 C 7,8 C 7,2 C 94 % 994,6 hPa 0,0 l/m 0 min 0 min 47 W/m 9,7 km/h (2 Bft) 97,87 %
09.05.2019 06:58 7,5 C 7,8 C 7,2 C 95 % 994,6 hPa 0,0 l/m 0 min 0 min 46 W/m 6,4 km/h (2 Bft) 100,00 %
09.05.2019 07:00 7,6 C 7,8 C 7,2 C 95 % 994,6 hPa 0,0 l/m 0 min 0 min 47 W/m 16,1 km/h (3 Bft) 97,87 %
09.05.2019 07:02 7,7 C 7,8 C 7,2 C 95 % 994,6 hPa 0,0 l/m 0 min 0 min 49 W/m 6,4 km/h (2 Bft) 97,87 %
09.05.2019 07:04 7,7 C 8,3 C 7,2 C 95 % 994,6 hPa 0,0 l/m 0 min 0 min 48 W/m 12,9 km/h (3 Bft) 95,74 %
09.05.2019 07:06 7,7 C 8,3 C 7,8 C 95 % 994,7 hPa 0,0 l/m 0 min 0 min 44 W/m 16,1 km/h (3 Bft) 97,87 %
09.05.2019 07:08 7,8 C 8,3 C 7,8 C 95 % 994,6 hPa 0,0 l/m 0 min 0 min 42 W/m 16,1 km/h (3 Bft) 97,87 %
09.05.2019 07:10 7,8 C 8,3 C 7,8 C 95 % 994,6 hPa 0,0 l/m 0 min 0 min 40 W/m 6,4 km/h (2 Bft) 97,87 %
09.05.2019 07:12 7,9 C 8,3 C 7,8 C 95 % 994,6 hPa 0,0 l/m 0 min 0 min 39 W/m 6,4 km/h (2 Bft) 95,65 %
09.05.2019 07:14 7,9 C 8,3 C 7,8 C 95 % 994,6 hPa 0,0 l/m 0 min 0 min 42 W/m 3,2 km/h (1 Bft) 95,74 %
09.05.2019 07:16 7,9 C 8,3 C 7,8 C 95 % 994,6 hPa 0,0 l/m 0 min 0 min 48 W/m 0,0 km/h (0 Bft) 93,62 %
09.05.2019 07:18 8,0 C 8,3 C 7,8 C 95 % 994,6 hPa 0,0 l/m 0 min 0 min 53 W/m 16,1 km/h (3 Bft) 95,74 %
09.05.2019 07:20 8,1 C 8,3 C 7,8 C 95 % 994,7 hPa 0,0 l/m 0 min 0 min 61 W/m 6,4 km/h (2 Bft) 93,62 %
09.05.2019 07:22 8,1 C 8,3 C 7,8 C 95 % 994,6 hPa 0,0 l/m 0 min 0 min 62 W/m 6,4 km/h (2 Bft) 95,74 %
09.05.2019 07:24 8,1 C 8,3 C 7,8 C 95 % 994,6 hPa 0,0 l/m 0 min 0 min 61 W/m 6,4 km/h (2 Bft) 95,65 %
09.05.2019 07:26 8,2 C 8,3 C 7,8 C 95 % 994,6 hPa 0,0 l/m 0 min 0 min 64 W/m 9,7 km/h (2 Bft) 95,74 %
09.05.2019 07:28 8,2 C 8,9 C 7,8 C 95 % 994,7 hPa 0,0 l/m 0 min 0 min 67 W/m 9,7 km/h (2 Bft) 91,49 %
09.05.2019 07:30 8,2 C 8,9 C 8,3 C 95 % 994,7 hPa 0,0 l/m 0 min 0 min 70 W/m 6,4 km/h (2 Bft) 93,62 %
09.05.2019 07:32 8,3 C 8,9 C 8,3 C 95 % 994,7 hPa 0,0 l/m 0 min 0 min 73 W/m 16,1 km/h (3 Bft) 95,74 %
09.05.2019 07:34 8,3 C 8,9 C 8,3 C 95 % 994,7 hPa 0,0 l/m 0 min 0 min 77 W/m 9,7 km/h (2 Bft) 93,62 %
09.05.2019 07:36 8,3 C 8,9 C 8,3 C 95 % 994,7 hPa 0,0 l/m 0 min 0 min 81 W/m 25,7 km/h (4 Bft) 95,65 %
09.05.2019 07:38 8,4 C 8,9 C 8,3 C 95 % 994,7 hPa 0,0 l/m 0 min 0 min 87 W/m 9,7 km/h (2 Bft) 95,74 %
09.05.2019 07:40 8,4 C 8,9 C 8,3 C 95 % 994,7 hPa 0,0 l/m 0 min 0 min 86 W/m 16,1 km/h (3 Bft) 95,74 %
09.05.2019 07:42 8,4 C 8,9 C 8,3 C 95 % 994,8 hPa 0,0 l/m 0 min 0 min 81 W/m 22,5 km/h (4 Bft) 95,74 %
09.05.2019 07:44 8,5 C 8,9 C 8,3 C 95 % 994,7 hPa 0,0 l/m 0 min 0 min 73 W/m 16,1 km/h (3 Bft) 95,74 %
09.05.2019 07:46 8,6 C 9,4 C 8,3 C 95 % 994,7 hPa 0,0 l/m 0 min 0 min 63 W/m 6,4 km/h (2 Bft) 95,65 %
09.05.2019 07:48 8,6 C 8,9 C 8,3 C 95 % 994,8 hPa 0,0 l/m 0 min 0 min 59 W/m 9,7 km/h (2 Bft) 95,74 %
09.05.2019 07:50 8,6 C 8,9 C 8,3 C 95 % 994,7 hPa 0,0 l/m 0 min 0 min 61 W/m 9,7 km/h (2 Bft) 97,87 %
09.05.2019 07:52 8,6 C 8,9 C 8,3 C 95 % 994,8 hPa 0,0 l/m 0 min 0 min 58 W/m 19,3 km/h (3 Bft) 95,74 %
09.05.2019 07:54 8,7 C 8,9 C 8,3 C 95 % 994,7 hPa 0,0 l/m 0 min 0 min 62 W/m 22,5 km/h (4 Bft) 100,00 %
09.05.2019 07:56 8,7 C 9,4 C 8,3 C 95 % 994,8 hPa 0,0 l/m 0 min 0 min 62 W/m 16,1 km/h (3 Bft) 100,00 %
09.05.2019 07:58 8,7 C 9,4 C 8,3 C 95 % 994,8 hPa 0,0 l/m 0 min 0 min 58 W/m 19,3 km/h (3 Bft) 100,00 %
09.05.2019 08:00 8,7 C 9,4 C 8,3 C 95 % 994,8 hPa 0,0 l/m 0 min 0 min 66 W/m 12,9 km/h (3 Bft) 97,87 %
09.05.2019 08:02 8,8 C 9,4 C 8,3 C 95 % 994,8 hPa 0,0 l/m 0 min 0 min 71 W/m 16,1 km/h (3 Bft) 93,62 %
09.05.2019 08:04 8,8 C 9,4 C 8,9 C 95 % 994,8 hPa 0,0 l/m 0 min 0 min 72 W/m 25,7 km/h (4 Bft) 100,00 %
09.05.2019 08:06 8,8 C 9,4 C 8,9 C 95 % 994,8 hPa 0,0 l/m 0 min 0 min 72 W/m 22,5 km/h (4 Bft) 100,00 %
09.05.2019 08:08 8,9 C 9,4 C 8,9 C 95 % 994,9 hPa 0,0 l/m 0 min 0 min 70 W/m 29,0 km/h (5 Bft) 97,87 %
09.05.2019 08:10 8,9 C 10,0 C 8,9 C 95 % 994,8 hPa 0,0 l/m 0 min 0 min 72 W/m 12,9 km/h (3 Bft) 97,83 %
09.05.2019 08:12 8,9 C 10,0 C 8,9 C 95 % 994,8 hPa 0,0 l/m 0 min 0 min 68 W/m 25,7 km/h (4 Bft) 97,87 %
09.05.2019 08:14 9,0 C 10,0 C 8,9 C 95 % 994,9 hPa 0,0 l/m 0 min 0 min 70 W/m 22,5 km/h (4 Bft) 97,87 %
09.05.2019 08:16 9,1 C 10,0 C 8,9 C 95 % 994,9 hPa 0,0 l/m 0 min 0 min 70 W/m 9,7 km/h (2 Bft) 97,87 %
09.05.2019 08:18 9,1 C 10,0 C 8,9 C 94 % 994,9 hPa 0,0 l/m 0 min 0 min 68 W/m 22,5 km/h (4 Bft) 97,87 %
09.05.2019 08:20 9,2 C 10,6 C 8,9 C 94 % 994,9 hPa 0,0 l/m 0 min 0 min 67 W/m 19,3 km/h (3 Bft) 97,87 %
09.05.2019 08:22 9,2 C 11,1 C 9,4 C 94 % 994,9 hPa 0,0 l/m 0 min 0 min 71 W/m 12,9 km/h (3 Bft) 100,00 %
09.05.2019 08:24 9,3 C 11,7 C 9,4 C 94 % 995,0 hPa 0,0 l/m 0 min 0 min 77 W/m 22,5 km/h (4 Bft) 97,87 %
09.05.2019 08:26 9,3 C 11,7 C 9,4 C 94 % 995,0 hPa 0,0 l/m 0 min 0 min 78 W/m 16,1 km/h (3 Bft) 97,87 %
09.05.2019 08:28 9,4 C 12,2 C 9,4 C 94 % 995,0 hPa 0,0 l/m 0 min 0 min 105 W/m 16,1 km/h (3 Bft) 97,87 %
09.05.2019 08:30 9,5 C 13,9 C 9,4 C 94 % 995,0 hPa 0,0 l/m 0 min 0 min 154 W/m 12,9 km/h (3 Bft) 97,87 %
09.05.2019 08:32 9,6 C 13,3 C 9,4 C 94 % 995,0 hPa 0,0 l/m 0 min 0 min 159 W/m 16,1 km/h (3 Bft) 97,87 %
09.05.2019 08:34 9,7 C 13,3 C 9,4 C 94 % 995,0 hPa 0,0 l/m 0 min 0 min 161 W/m 16,1 km/h (3 Bft) 95,65 %
09.05.2019 08:36 9,8 C 13,3 C 9,4 C 94 % 994,9 hPa 0,0 l/m 0 min 0 min 190 W/m 19,3 km/h (3 Bft) 97,87 %
09.05.2019 08:38 9,9 C 13,9 C 9,4 C 94 % 995,0 hPa 0,0 l/m 2 min 0 min 222 W/m 16,1 km/h (3 Bft) 97,87 %
09.05.2019 08:40 10,1 C 13,9 C 10,0 C 94 % 994,9 hPa 0,0 l/m 2 min 0 min 266 W/m 16,1 km/h (3 Bft) 97,87 %
09.05.2019 08:42 10,2 C 14,4 C 10,0 C 94 % 994,9 hPa 0,0 l/m 2 min 0 min 284 W/m 16,1 km/h (3 Bft) 97,87 %
09.05.2019 08:44 10,3 C 15,0 C 10,0 C 93 % 994,9 hPa 0,0 l/m 2 min 0 min 311 W/m 12,9 km/h (3 Bft) 95,65 %
09.05.2019 08:46 10,4 C 14,4 C 10,6 C 93 % 994,9 hPa 0,0 l/m 2 min 0 min 311 W/m 19,3 km/h (3 Bft) 97,87 %
09.05.2019 08:48 10,6 C 15,0 C 11,7 C 93 % 994,9 hPa 0,0 l/m 2 min 0 min 312 W/m 16,1 km/h (3 Bft) 97,87 %
09.05.2019 08:50 10,7 C 14,4 C 13,3 C 92 % 995,0 hPa 0,0 l/m 2 min 0 min 355 W/m 16,1 km/h (3 Bft) 97,87 %
09.05.2019 08:52 10,8 C 15,0 C 13,3 C 92 % 995,0 hPa 0,0 l/m 2 min 0 min 372 W/m 29,0 km/h (5 Bft) 97,87 %
09.05.2019 08:54 10,9 C 15,6 C 12,2 C 91 % 995,0 hPa 0,0 l/m 2 min 0 min 384 W/m 22,5 km/h (4 Bft) 97,87 %
09.05.2019 08:56 11,1 C 14,4 C 11,7 C 91 % 995,0 hPa 0,0 l/m 2 min 0 min 370 W/m 29,0 km/h (5 Bft) 97,83 %
09.05.2019 08:58 11,2 C 14,4 C 12,8 C 90 % 995,0 hPa 0,0 l/m 2 min 0 min 272 W/m 22,5 km/h (4 Bft) 97,87 %
09.05.2019 09:00 11,3 C 14,4 C 12,8 C 89 % 995,0 hPa 0,0 l/m 2 min 0 min 344 W/m 19,3 km/h (3 Bft) 97,87 %
09.05.2019 09:02 11,4 C 13,3 C 12,8 C 89 % 994,9 hPa 0,0 l/m 0 min 0 min 184 W/m 16,1 km/h (3 Bft) 93,62 %
09.05.2019 09:04 11,4 C 14,4 C 13,9 C 88 % 995,0 hPa 0,0 l/m 2 min 0 min 247 W/m 12,9 km/h (3 Bft) 97,87 %
09.05.2019 09:06 11,6 C 15,0 C 14,4 C 88 % 994,9 hPa 0,0 l/m 2 min 0 min 300 W/m 29,0 km/h (5 Bft) 95,74 %
09.05.2019 09:08 11,7 C 15,6 C 15,0 C 88 % 994,9 hPa 0,0 l/m 2 min 0 min 347 W/m 19,3 km/h (3 Bft) 95,65 %
09.05.2019 09:10 11,7 C 16,1 C 16,1 C 87 % 994,9 hPa 0,0 l/m 2 min 0 min 364 W/m 16,1 km/h (3 Bft) 97,87 %
09.05.2019 09:12 11,8 C 15,6 C 15,6 C 87 % 994,8 hPa 0,0 l/m 2 min 0 min 401 W/m 22,5 km/h (4 Bft) 97,87 %
09.05.2019 09:14 11,9 C 16,7 C 16,7 C 87 % 994,8 hPa 0,0 l/m 2 min 0 min 451 W/m 22,5 km/h (4 Bft) 95,74 %
09.05.2019 09:16 12,1 C 16,7 C 17,2 C 86 % 994,9 hPa 0,0 l/m 2 min 0 min 493 W/m 25,7 km/h (4 Bft) 97,87 %
09.05.2019 09:18 12,2 C 16,7 C 17,2 C 86 % 995,0 hPa 0,0 l/m 2 min 0 min 495 W/m 25,7 km/h (4 Bft) 95,74 %
09.05.2019 09:20 12,3 C 17,2 C 17,8 C 85 % 994,9 hPa 0,0 l/m 2 min 0 min 496 W/m 16,1 km/h (3 Bft) 97,83 %
09.05.2019 09:22 12,4 C 17,8 C 18,3 C 84 % 994,8 hPa 0,0 l/m 2 min 0 min 513 W/m 22,5 km/h (4 Bft) 97,87 %
09.05.2019 09:24 12,5 C 18,3 C 18,9 C 84 % 994,9 hPa 0,0 l/m 2 min 0 min 519 W/m 16,1 km/h (3 Bft) 97,87 %
09.05.2019 09:26 12,6 C 17,8 C 18,3 C 84 % 994,8 hPa 0,0 l/m 2 min 0 min 520 W/m 22,5 km/h (4 Bft) 93,62 %
09.05.2019 09:28 12,7 C 17,8 C 18,9 C 83 % 994,9 hPa 0,0 l/m 2 min 0 min 529 W/m 16,1 km/h (3 Bft) 95,74 %
09.05.2019 09:30 12,9 C 17,2 C 18,3 C 83 % 994,9 hPa 0,0 l/m 2 min 0 min 528 W/m 22,5 km/h (4 Bft) 93,62 %
09.05.2019 09:32 13,0 C 17,2 C 17,8 C 83 % 994,8 hPa 0,0 l/m 2 min 0 min 483 W/m 19,3 km/h (3 Bft) 95,65 %
09.05.2019 09:34 13,1 C 16,7 C 17,2 C 82 % 994,8 hPa 0,0 l/m 2 min 0 min 473 W/m 22,5 km/h (4 Bft) 95,74 %
09.05.2019 09:36 13,2 C 17,2 C 17,2 C 82 % 994,9 hPa 0,0 l/m 2 min 0 min 523 W/m 19,3 km/h (3 Bft) 93,62 %
09.05.2019 09:38 13,3 C 18,3 C 18,3 C 81 % 994,8 hPa 0,0 l/m 2 min 0 min 559 W/m 22,5 km/h (4 Bft) 95,74 %
09.05.2019 09:40 13,4 C 17,8 C 18,3 C 81 % 994,9 hPa 0,0 l/m 2 min 0 min 565 W/m 29,0 km/h (5 Bft) 93,62 %
09.05.2019 09:42 13,4 C 18,3 C 18,9 C 80 % 994,8 hPa 0,0 l/m 2 min 0 min 576 W/m 19,3 km/h (3 Bft) 91,49 %
09.05.2019 09:44 13,6 C 18,3 C 18,9 C 80 % 994,9 hPa 0,0 l/m 2 min 0 min 586 W/m 25,7 km/h (4 Bft) 94,29 %
09.05.2019 09:46 13,6 C 17,8 C 18,9 C 79 % 994,9 hPa 0,0 l/m 2 min 0 min 590 W/m 25,7 km/h (4 Bft) 93,48 %
09.05.2019 09:48 13,7 C 17,8 C 18,9 C 79 % 994,9 hPa 0,0 l/m 2 min 0 min 606 W/m 29,0 km/h (5 Bft) 91,49 %
09.05.2019 09:50 13,7 C 17,8 C 18,3 C 78 % 994,9 hPa 0,0 l/m 2 min 0 min 620 W/m 29,0 km/h (5 Bft) 93,62 %
09.05.2019 09:52 13,8 C 16,7 C 17,2 C 78 % 994,9 hPa 0,0 l/m 2 min 0 min 631 W/m 19,3 km/h (3 Bft) 91,49 %
09.05.2019 09:54 13,8 C 15,0 C 15,6 C 78 % 994,9 hPa 0,0 l/m 2 min 0 min 631 W/m 29,0 km/h (5 Bft) 89,36 %
09.05.2019 09:56 13,8 C 14,4 C 14,4 C 78 % 994,9 hPa 0,0 l/m 0 min 0 min 270 W/m 22,5 km/h (4 Bft) 93,62 %
09.05.2019 09:58 13,7 C 15,0 C 15,0 C 78 % 994,9 hPa 0,0 l/m 0 min 0 min 195 W/m 25,7 km/h (4 Bft) 91,30 %
09.05.2019 10:00 13,7 C 14,4 C 14,4 C 77 % 994,9 hPa 0,0 l/m 0 min 0 min 250 W/m 25,7 km/h (4 Bft) 93,62 %
09.05.2019 10:02 13,7 C 15,6 C 15,6 C 78 % 994,8 hPa 0,0 l/m 0 min 0 min 290 W/m 16,1 km/h (3 Bft) 95,74 %
09.05.2019 10:04 13,7 C 13,9 C 13,9 C 78 % 994,8 hPa 0,0 l/m 0 min 0 min 177 W/m 22,5 km/h (4 Bft) 93,62 %
09.05.2019 10:06 13,6 C 13,9 C 13,3 C 78 % 994,8 hPa 0,0 l/m 0 min 0 min 166 W/m 16,1 km/h (3 Bft) 94,83 %
09.05.2019 10:08 13,6 C 13,9 C 13,3 C 78 % 994,9 hPa 0,0 l/m 0 min 0 min 188 W/m 9,7 km/h (2 Bft) 94,44 %
09.05.2019 10:10 13,5 C 13,3 C 12,8 C 78 % 994,8 hPa 0,0 l/m 0 min 0 min 206 W/m 29,0 km/h (5 Bft) 91,30 %
09.05.2019 10:12 13,4 C 13,9 C 13,3 C 78 % 994,8 hPa 0,0 l/m 0 min 0 min 243 W/m 16,1 km/h (3 Bft) 95,74 %
09.05.2019 10:14 13,4 C 14,4 C 13,3 C 78 % 994,8 hPa 0,0 l/m 0 min 0 min 264 W/m 16,1 km/h (3 Bft) 93,62 %
09.05.2019 10:16 13,4 C 16,7 C 16,1 C 78 % 994,8 hPa 0,0 l/m 0 min 0 min 274 W/m 35,4 km/h (5 Bft) 93,62 %
09.05.2019 10:18 13,4 C 16,1 C 15,6 C 78 % 994,8 hPa 0,0 l/m 0 min 0 min 276 W/m 16,1 km/h (3 Bft) 95,74 %
09.05.2019 10:20 13,4 C 15,0 C 15,0 C 78 % 994,8 hPa 0,0 l/m 0 min 0 min 263 W/m 29,0 km/h (5 Bft) 93,62 %
09.05.2019 10:22 13,4 C 14,4 C 13,9 C 77 % 994,8 hPa 0,0 l/m 0 min 0 min 280 W/m 19,3 km/h (3 Bft) 95,65 %
09.05.2019 10:24 13,4 C 14,4 C 13,9 C 77 % 994,8 hPa 0,0 l/m 2 min 0 min 323 W/m 22,5 km/h (4 Bft) 97,87 %
09.05.2019 10:26 13,4 C 14,4 C 13,9 C 78 % 994,8 hPa 0,0 l/m 2 min 0 min 332 W/m 25,7 km/h (4 Bft) 93,62 %
09.05.2019 10:28 13,4 C 15,0 C 14,4 C 77 % 994,8 hPa 0,0 l/m 2 min 0 min 343 W/m 19,3 km/h (3 Bft) 95,74 %
09.05.2019 10:30 13,5 C 14,4 C 13,9 C 78 % 994,8 hPa 0,0 l/m 0 min 0 min 261 W/m 19,3 km/h (3 Bft) 97,87 %
09.05.2019 10:32 13,5 C 13,9 C 13,3 C 78 % 994,8 hPa 0,0 l/m 0 min 0 min 219 W/m 25,7 km/h (4 Bft) 97,87 %
09.05.2019 10:34 13,5 C 13,9 C 13,3 C 78 % 994,8 hPa 0,0 l/m 0 min 0 min 235 W/m 16,1 km/h (3 Bft) 97,83 %
09.05.2019 10:36 13,5 C 13,9 C 13,3 C 78 % 994,8 hPa 0,0 l/m 0 min 0 min 242 W/m 22,5 km/h (4 Bft) 98,31 %
09.05.2019 10:38 13,4 C 13,9 C 13,3 C 78 % 994,8 hPa 0,0 l/m 0 min 0 min 263 W/m 19,3 km/h (3 Bft) 100,00 %
09.05.2019 10:40 13,4 C 13,9 C 13,3 C 78 % 994,7 hPa 0,0 l/m 0 min 0 min 266 W/m 29,0 km/h (5 Bft) 100,00 %
09.05.2019 10:42 13,4 C 15,6 C 14,4 C 78 % 994,6 hPa 0,0 l/m 2 min 0 min 338 W/m 22,5 km/h (4 Bft) 100,00 %
09.05.2019 10:44 13,4 C 15,6 C 15,0 C 78 % 994,7 hPa 0,0 l/m 2 min 0 min 354 W/m 25,7 km/h (4 Bft) 100,00 %
09.05.2019 10:46 13,4 C 16,7 C 16,1 C 78 % 994,7 hPa 0,0 l/m 2 min 0 min 348 W/m 25,7 km/h (4 Bft) 100,00 %
09.05.2019 10:48 13,5 C 17,2 C 17,2 C 78 % 994,6 hPa 0,0 l/m 2 min 0 min 348 W/m 25,7 km/h (4 Bft) 100,00 %
09.05.2019 10:50 13,6 C 18,3 C 18,3 C 78 % 994,6 hPa 0,0 l/m 2 min 0 min 529 W/m 19,3 km/h (3 Bft) 100,00 %
09.05.2019 10:52 13,7 C 18,9 C 17,8 C 78 % 994,7 hPa 0,0 l/m 2 min 0 min 548 W/m 12,9 km/h (3 Bft) 95,74 %
09.05.2019 10:54 13,8 C 16,7 C 16,7 C 77 % 994,7 hPa 0,0 l/m 2 min 0 min 461 W/m 22,5 km/h (4 Bft) 100,00 %
09.05.2019 10:56 13,8 C 15,6 C 16,1 C 77 % 994,8 hPa 0,0 l/m 0 min 0 min 307 W/m 29,0 km/h (5 Bft) 100,00 %
09.05.2019 10:58 13,9 C 15,0 C 15,0 C 77 % 994,8 hPa 0,0 l/m 0 min 0 min 289 W/m 19,3 km/h (3 Bft) 100,00 %
09.05.2019 11:00 13,9 C 14,4 C 14,4 C 77 % 994,8 hPa 0,0 l/m 0 min 0 min 322 W/m 25,7 km/h (4 Bft) 97,87 %
09.05.2019 11:02 13,9 C 14,4 C 14,4 C 76 % 994,8 hPa 0,0 l/m 0 min 0 min 338 W/m 22,5 km/h (4 Bft) 100,00 %
09.05.2019 11:04 13,9 C 14,4 C 14,4 C 76 % 994,8 hPa 0,0 l/m 0 min 0 min 340 W/m 19,3 km/h (3 Bft) 100,00 %
09.05.2019 11:06 13,9 C 15,0 C 14,4 C 76 % 994,8 hPa 0,0 l/m 2 min 0 min 351 W/m 12,9 km/h (3 Bft) 100,00 %
09.05.2019 11:08 13,9 C 15,0 C 14,4 C 76 % 994,8 hPa 0,0 l/m 0 min 0 min 346 W/m 32,2 km/h (5 Bft) 100,00 %
09.05.2019 11:10 13,9 C 15,0 C 14,4 C 76 % 994,8 hPa 0,0 l/m 2 min 0 min 351 W/m 22,5 km/h (4 Bft) 100,00 %
09.05.2019 11:12 13,9 C 15,0 C 14,4 C 77 % 994,8 hPa 0,0 l/m 2 min 0 min 387 W/m 25,7 km/h (4 Bft) 100,00 %
09.05.2019 11:14 13,9 C 15,6 C 15,0 C 77 % 994,8 hPa 0,0 l/m 2 min 0 min 452 W/m 25,7 km/h (4 Bft) 100,00 %
09.05.2019 11:16 14,0 C 17,2 C 16,7 C 77 % 994,7 hPa 0,0 l/m 2 min 0 min 521 W/m 22,5 km/h (4 Bft) 100,00 %
09.05.2019 11:18 14,1 C 17,2 C 17,2 C 77 % 994,8 hPa 0,0 l/m 2 min 0 min 675 W/m 22,5 km/h (4 Bft) 100,00 %
09.05.2019 11:20 14,2 C 16,7 C 16,7 C 77 % 994,8 hPa 0,0 l/m 2 min 0 min 533 W/m 29,0 km/h (5 Bft) 100,00 %
09.05.2019 11:22 14,2 C 16,1 C 15,6 C 77 % 994,8 hPa 0,0 l/m 2 min 0 min 470 W/m 22,5 km/h (4 Bft) 100,00 %
09.05.2019 11:24 14,2 C 16,1 C 16,1 C 77 % 994,8 hPa 0,0 l/m 2 min 0 min 520 W/m 22,5 km/h (4 Bft) 100,00 %
09.05.2019 11:26 14,2 C 17,2 C 16,7 C 77 % 994,8 hPa 0,0 l/m 2 min 0 min 626 W/m 22,5 km/h (4 Bft) 97,87 %
09.05.2019 11:28 14,2 C 17,8 C 17,2 C 78 % 994,8 hPa 0,0 l/m 2 min 0 min 619 W/m 16,1 km/h (3 Bft) 100,00 %
09.05.2019 11:30 14,3 C 17,2 C 16,7 C 78 % 994,8 hPa 0,0 l/m 2 min 0 min 462 W/m 16,1 km/h (3 Bft) 97,83 %
09.05.2019 11:32 14,3 C 15,6 C 15,0 C 77 % 994,8 hPa 0,0 l/m 0 min 0 min 335 W/m 29,0 km/h (5 Bft) 100,00 %
09.05.2019 11:34 14,3 C 15,0 C 15,0 C 77 % 994,8 hPa 0,0 l/m 0 min 0 min 361 W/m 19,3 km/h (3 Bft) 97,87 %
09.05.2019 11:36 14,3 C 15,6 C 14,4 C 78 % 994,8 hPa 0,0 l/m 2 min 2 min 442 W/m 19,3 km/h (3 Bft) 100,00 %
09.05.2019 11:38 14,3 C 16,1 C 15,0 C 78 % 994,8 hPa 0,0 l/m 2 min 2 min 475 W/m 16,1 km/h (3 Bft) 100,00 %
09.05.2019 11:40 14,4 C 17,8 C 15,6 C 79 % 994,8 hPa 0,0 l/m 2 min 0 min 559 W/m 12,9 km/h (3 Bft) 100,00 %
09.05.2019 11:42 14,4 C 16,7 C 15,0 C 80 % 994,7 hPa 0,0 l/m 2 min 2 min 519 W/m 16,1 km/h (3 Bft) 97,83 %
09.05.2019 11:44 14,5 C 17,2 C 16,1 C 79 % 994,8 hPa 0,0 l/m 2 min 2 min 560 W/m 16,1 km/h (3 Bft) 97,87 %
09.05.2019 11:46 14,5 C 17,8 C 16,7 C 79 % 994,7 hPa 0,0 l/m 2 min 0 min 622 W/m 16,1 km/h (3 Bft) 97,87 %
09.05.2019 11:48 14,6 C 18,3 C 17,2 C 78 % 994,7 hPa 0,0 l/m 2 min 0 min 622 W/m 16,1 km/h (3 Bft) 97,87 %
09.05.2019 11:50 14,6 C 18,9 C 17,8 C 77 % 994,6 hPa 0,0 l/m 2 min 0 min 669 W/m 19,3 km/h (3 Bft) 95,74 %
09.05.2019 11:52 14,6 C 17,8 C 17,8 C 77 % 994,6 hPa 0,0 l/m 2 min 0 min 735 W/m 22,5 km/h (4 Bft) 100,00 %
09.05.2019 11:54 14,7 C 17,8 C 17,8 C 76 % 994,7 hPa 0,0 l/m 2 min 0 min 735 W/m 16,1 km/h (3 Bft) 97,83 %
09.05.2019 11:56 14,7 C 16,7 C 16,7 C 76 % 994,7 hPa 0,0 l/m 0 min 0 min 376 W/m 19,3 km/h (3 Bft) 95,74 %
09.05.2019 11:58 14,7 C 16,7 C 16,1 C 76 % 994,8 hPa 0,0 l/m 0 min 0 min 361 W/m 22,5 km/h (4 Bft) 95,74 %
09.05.2019 12:00 14,7 C 17,2 C 16,7 C 75 % 994,8 hPa 0,0 l/m 0 min 0 min 350 W/m 22,5 km/h (4 Bft) 97,96 %
09.05.2019 12:02 14,7 C 16,7 C 16,7 C 75 % 994,8 hPa 0,0 l/m 2 min 0 min 425 W/m 22,5 km/h (4 Bft) 95,74 %
09.05.2019 12:04 14,8 C 17,8 C 17,8 C 75 % 994,8 hPa 0,0 l/m 2 min 0 min 533 W/m 16,1 km/h (3 Bft) 97,87 %
09.05.2019 12:07 14,8 C 17,8 C 17,8 C 75 % 994,8 hPa 0,0 l/m 3 min 0 min 479 W/m 25,7 km/h (4 Bft) 95,77 %
09.05.2019 12:08 14,8 C 17,8 C 17,8 C 75 % 994,8 hPa 0,0 l/m 1 min 0 min 502 W/m 19,3 km/h (3 Bft) 100,00 %
09.05.2019 12:10 14,9 C 18,3 C 17,8 C 75 % 994,8 hPa 0,0 l/m 2 min 0 min 566 W/m 22,5 km/h (4 Bft) 97,87 %
09.05.2019 12:12 15,0 C 17,8 C 17,2 C 74 % 994,8 hPa 0,0 l/m 2 min 0 min 485 W/m 25,7 km/h (4 Bft) 97,87 %
09.05.2019 12:14 15,0 C 18,9 C 19,4 C 73 % 994,9 hPa 0,0 l/m 2 min 0 min 438 W/m 29,0 km/h (5 Bft) 93,62 %
09.05.2019 12:16 15,1 C 20,0 C 20,0 C 73 % 994,8 hPa 0,0 l/m 2 min 0 min 438 W/m 25,7 km/h (4 Bft) 95,74 %
09.05.2019 12:18 15,2 C 21,1 C 21,7 C 73 % 994,8 hPa 0,0 l/m 2 min 0 min 469 W/m 32,2 km/h (5 Bft) 97,83 %
09.05.2019 12:20 15,3 C 22,2 C 23,3 C 73 % 994,8 hPa 0,0 l/m 2 min 0 min 804 W/m 22,5 km/h (4 Bft) 95,74 %
09.05.2019 12:22 15,4 C 22,2 C 23,3 C 72 % 994,8 hPa 0,0 l/m 2 min 0 min 1066 W/m 16,1 km/h (3 Bft) 97,87 %
09.05.2019 12:24 15,6 C 21,7 C 23,3 C 72 % 994,8 hPa 0,0 l/m 2 min 0 min 1032 W/m 16,1 km/h (3 Bft) 97,87 %
09.05.2019 12:26 15,6 C 18,9 C 20,0 C 72 % 994,8 hPa 0,0 l/m 2 min 0 min 886 W/m 25,7 km/h (4 Bft) 95,74 %
09.05.2019 12:28 15,7 C 17,2 C 18,3 C 71 % 994,8 hPa 0,0 l/m 0 min 0 min 383 W/m 22,5 km/h (4 Bft) 97,87 %
09.05.2019 12:30 15,7 C 17,2 C 17,8 C 71 % 994,9 hPa 0,0 l/m 2 min 0 min 512 W/m 25,7 km/h (4 Bft) 97,83 %
09.05.2019 12:32 15,6 C 17,8 C 17,8 C 70 % 994,9 hPa 0,0 l/m 2 min 0 min 592 W/m 25,7 km/h (4 Bft) 95,74 %
09.05.2019 12:34 15,7 C 19,4 C 20,0 C 71 % 994,9 hPa 0,0 l/m 2 min 0 min 592 W/m 16,1 km/h (3 Bft) 97,87 %
09.05.2019 12:36 15,7 C 18,3 C 18,9 C 71 % 995,0 hPa 0,0 l/m 2 min 0 min 749 W/m 29,0 km/h (5 Bft) 97,87 %
09.05.2019 12:38 15,6 C 17,2 C 17,8 C 70 % 994,9 hPa 0,0 l/m 2 min 0 min 759 W/m 22,5 km/h (4 Bft) 97,87 %
09.05.2019 12:40 15,6 C 17,2 C 17,2 C 71 % 995,0 hPa 0,0 l/m 2 min 0 min 542 W/m 22,5 km/h (4 Bft) 97,83 %
09.05.2019 12:42 15,6 C 17,2 C 17,2 C 71 % 995,0 hPa 0,0 l/m 2 min 0 min 451 W/m 16,1 km/h (3 Bft) 97,87 %
09.05.2019 12:44 15,6 C 16,7 C 16,7 C 72 % 995,0 hPa 0,0 l/m 0 min 0 min 390 W/m 22,5 km/h (4 Bft) 97,87 %
09.05.2019 12:46 15,5 C 16,7 C 16,7 C 72 % 995,0 hPa 0,0 l/m 0 min 0 min 389 W/m 25,7 km/h (4 Bft) 97,87 %
09.05.2019 12:48 15,4 C 16,1 C 16,7 C 72 % 995,0 hPa 0,0 l/m 2 min 0 min 400 W/m 22,5 km/h (4 Bft) 97,87 %
09.05.2019 12:50 15,4 C 16,1 C 16,1 C 72 % 995,1 hPa 0,0 l/m 0 min 0 min 382 W/m 19,3 km/h (3 Bft) 97,87 %
09.05.2019 12:52 15,3 C 15,6 C 15,6 C 72 % 995,0 hPa 0,0 l/m 0 min 0 min 357 W/m 29,0 km/h (5 Bft) 95,92 %
09.05.2019 12:54 15,3 C 15,6 C 15,6 C 72 % 995,0 hPa 0,0 l/m 0 min 0 min 350 W/m 19,3 km/h (3 Bft) 97,87 %
09.05.2019 12:56 15,2 C 15,6 C 15,6 C 72 % 995,1 hPa 0,0 l/m 0 min 0 min 354 W/m 16,1 km/h (3 Bft) 97,87 %
09.05.2019 12:58 15,2 C 15,6 C 15,6 C 72 % 995,0 hPa 0,0 l/m 0 min 0 min 366 W/m 22,5 km/h (4 Bft) 97,87 %
09.05.2019 13:00 15,1 C 15,6 C 15,6 C 73 % 995,1 hPa 0,0 l/m 0 min 0 min 389 W/m 25,7 km/h (4 Bft) 97,87 %
09.05.2019 13:02 15,1 C 15,6 C 15,6 C 73 % 995,1 hPa 0,0 l/m 2 min 0 min 415 W/m 22,5 km/h (4 Bft) 95,65 %
09.05.2019 13:04 15,0 C 16,1 C 16,1 C 73 % 995,1 hPa 0,0 l/m 2 min 0 min 470 W/m 19,3 km/h (3 Bft) 97,87 %
09.05.2019 13:06 14,9 C 16,7 C 16,7 C 73 % 995,1 hPa 0,0 l/m 2 min 0 min 535 W/m 19,3 km/h (3 Bft) 97,87 %
09.05.2019 13:08 15,0 C 17,2 C 17,2 C 74 % 995,1 hPa 0,0 l/m 2 min 0 min 526 W/m 22,5 km/h (4 Bft) 97,87 %
09.05.2019 13:10 15,0 C 16,7 C 16,7 C 73 % 995,1 hPa 0,0 l/m 2 min 0 min 484 W/m 22,5 km/h (4 Bft) 97,87 %
09.05.2019 13:12 15,0 C 16,7 C 16,7 C 74 % 995,1 hPa 0,0 l/m 2 min 0 min 451 W/m 16,1 km/h (3 Bft) 97,87 %
09.05.2019 13:14 15,0 C 16,7 C 16,7 C 73 % 995,1 hPa 0,0 l/m 2 min 0 min 438 W/m 25,7 km/h (4 Bft) 100,00 %
09.05.2019 13:16 15,0 C 16,1 C 16,1 C 73 % 995,1 hPa 0,0 l/m 2 min 0 min 424 W/m 19,3 km/h (3 Bft) 100,00 %
09.05.2019 13:18 15,0 C 16,1 C 16,1 C 73 % 995,1 hPa 0,0 l/m 2 min 0 min 423 W/m 22,5 km/h (4 Bft) 100,00 %
09.05.2019 13:20 15,0 C 16,1 C 16,1 C 73 % 995,1 hPa 0,0 l/m 2 min 0 min 433 W/m 22,5 km/h (4 Bft) 100,00 %
09.05.2019 13:22 14,9 C 15,6 C 15,6 C 73 % 995,1 hPa 0,0 l/m 2 min 0 min 435 W/m 35,4 km/h (5 Bft) 97,87 %
09.05.2019 13:24 14,9 C 15,6 C 15,6 C 73 % 995,2 hPa 0,0 l/m 2 min 0 min 416 W/m 22,5 km/h (4 Bft) 97,87 %
09.05.2019 13:26 14,9 C 15,6 C 15,6 C 73 % 995,2 hPa 0,0 l/m 0 min 0 min 396 W/m 22,5 km/h (4 Bft) 97,87 %
09.05.2019 13:28 14,9 C 15,6 C 15,6 C 73 % 995,2 hPa 0,0 l/m 0 min 0 min 372 W/m 19,3 km/h (3 Bft) 97,83 %
09.05.2019 13:30 14,9 C 15,6 C 15,6 C 73 % 995,3 hPa 0,0 l/m 0 min 0 min 375 W/m 22,5 km/h (4 Bft) 100,00 %
09.05.2019 13:32 14,9 C 15,6 C 15,0 C 73 % 995,3 hPa 0,0 l/m 0 min 0 min 390 W/m 22,5 km/h (4 Bft) 97,87 %
09.05.2019 13:34 14,9 C 15,6 C 15,6 C 73 % 995,3 hPa 0,0 l/m 0 min 0 min 390 W/m 22,5 km/h (4 Bft) 97,87 %
09.05.2019 13:36 14,8 C 15,6 C 15,0 C 73 % 995,3 hPa 0,0 l/m 0 min 0 min 393 W/m 29,0 km/h (5 Bft) 97,87 %
09.05.2019 13:38 14,8 C 15,6 C 15,0 C 74 % 995,3 hPa 0,0 l/m 2 min 0 min 441 W/m 32,2 km/h (5 Bft) 100,00 %
09.05.2019 13:40 14,8 C 16,1 C 15,6 C 74 % 995,3 hPa 0,0 l/m 2 min 0 min 497 W/m 25,7 km/h (4 Bft) 100,00 %
09.05.2019 13:42 14,8 C 16,1 C 16,1 C 74 % 995,3 hPa 0,0 l/m 2 min 0 min 502 W/m 25,7 km/h (4 Bft) 97,87 %
09.05.2019 13:44 14,9 C 16,1 C 16,1 C 74 % 995,3 hPa 0,0 l/m 2 min 0 min 477 W/m 25,7 km/h (4 Bft) 97,87 %
09.05.2019 13:46 14,9 C 16,7 C 16,1 C 73 % 995,4 hPa 0,0 l/m 2 min 0 min 465 W/m 22,5 km/h (4 Bft) 95,74 %
09.05.2019 13:48 14,9 C 16,7 C 16,1 C 72 % 995,3 hPa 0,0 l/m 2 min 0 min 472 W/m 22,5 km/h (4 Bft) 97,87 %
09.05.2019 13:50 14,9 C 17,8 C 17,8 C 73 % 995,3 hPa 0,0 l/m 2 min 0 min 540 W/m 9,7 km/h (2 Bft) 97,83 %
09.05.2019 13:52 15,0 C 17,2 C 17,8 C 73 % 995,4 hPa 0,0 l/m 2 min 0 min 553 W/m 22,5 km/h (4 Bft) 95,74 %
09.05.2019 13:54 15,1 C 17,2 C 17,2 C 73 % 995,4 hPa 0,0 l/m 2 min 0 min 523 W/m 19,3 km/h (3 Bft) 97,87 %
09.05.2019 13:56 15,1 C 16,7 C 16,7 C 73 % 995,4 hPa 0,0 l/m 2 min 0 min 487 W/m 22,5 km/h (4 Bft) 97,87 %
09.05.2019 13:58 15,1 C 16,1 C 16,1 C 72 % 995,4 hPa 0,0 l/m 2 min 0 min 451 W/m 29,0 km/h (5 Bft) 97,87 %
09.05.2019 14:00 15,1 C 16,1 C 16,1 C 73 % 995,4 hPa 0,0 l/m 2 min 0 min 424 W/m 16,1 km/h (3 Bft) 97,87 %
09.05.2019 14:02 15,2 C 16,7 C 16,1 C 73 % 995,4 hPa 0,0 l/m 2 min 0 min 412 W/m 19,3 km/h (3 Bft) 95,65 %
09.05.2019 14:04 15,2 C 16,7 C 16,1 C 72 % 995,5 hPa 0,0 l/m 2 min 0 min 426 W/m 22,5 km/h (4 Bft) 97,87 %
09.05.2019 14:06 15,2 C 16,7 C 16,1 C 72 % 995,4 hPa 0,0 l/m 2 min 0 min 456 W/m 22,5 km/h (4 Bft) 91,49 %
09.05.2019 14:08 15,2 C 17,2 C 16,7 C 72 % 995,4 hPa 0,0 l/m 2 min 0 min 482 W/m 16,1 km/h (3 Bft) 93,62 %
09.05.2019 14:10 15,3 C 17,2 C 16,7 C 73 % 995,5 hPa 0,0 l/m 2 min 0 min 499 W/m 16,1 km/h (3 Bft) 95,74 %
09.05.2019 14:12 15,3 C 17,2 C 16,7 C 72 % 995,5 hPa 0,0 l/m 2 min 0 min 515 W/m 12,9 km/h (3 Bft) 95,74 %
09.05.2019 14:14 15,3 C 17,2 C 16,7 C 72 % 995,5 hPa 0,0 l/m 2 min 0 min 536 W/m 16,1 km/h (3 Bft) 93,48 %
09.05.2019 14:16 15,4 C 18,3 C 17,2 C 72 % 995,5 hPa 0,0 l/m 2 min 0 min 576 W/m 12,9 km/h (3 Bft) 91,49 %
09.05.2019 14:18 15,4 C 18,3 C 17,8 C 72 % 995,5 hPa 0,0 l/m 2 min 0 min 575 W/m 9,7 km/h (2 Bft) 95,74 %
09.05.2019 14:20 15,6 C 18,9 C 18,3 C 72 % 995,5 hPa 0,0 l/m 2 min 0 min 569 W/m 16,1 km/h (3 Bft) 93,62 %
09.05.2019 14:22 15,6 C 18,9 C 18,3 C 72 % 995,5 hPa 0,0 l/m 2 min 0 min 596 W/m 16,1 km/h (3 Bft) 95,74 %
09.05.2019 14:24 15,7 C 20,6 C 20,6 C 72 % 995,5 hPa 0,0 l/m 2 min 0 min 714 W/m 9,7 km/h (2 Bft) 95,65 %
09.05.2019 14:26 15,8 C 21,1 C 21,7 C 72 % 995,5 hPa 0,0 l/m 2 min 0 min 756 W/m 19,3 km/h (3 Bft) 95,74 %
09.05.2019 14:28 15,9 C 21,1 C 21,1 C 72 % 995,5 hPa 0,0 l/m 2 min 0 min 961 W/m 22,5 km/h (4 Bft) 95,74 %
09.05.2019 14:30 16,0 C 20,0 C 19,4 C 70 % 995,6 hPa 0,0 l/m 2 min 0 min 733 W/m 16,1 km/h (3 Bft) 95,74 %
09.05.2019 14:32 16,1 C 18,9 C 18,9 C 69 % 995,5 hPa 0,0 l/m 2 min 0 min 679 W/m 16,1 km/h (3 Bft) 93,62 %
09.05.2019 14:34 16,1 C 18,3 C 18,3 C 69 % 995,6 hPa 0,0 l/m 2 min 0 min 506 W/m 16,1 km/h (3 Bft) 97,87 %
09.05.2019 14:36 16,2 C 17,8 C 17,8 C 69 % 995,5 hPa 0,0 l/m 2 min 0 min 482 W/m 16,1 km/h (3 Bft) 95,65 %
09.05.2019 14:38 16,2 C 17,8 C 17,2 C 69 % 995,6 hPa 0,0 l/m 2 min 0 min 473 W/m 19,3 km/h (3 Bft) 91,49 %
09.05.2019 14:40 16,2 C 17,8 C 17,2 C 69 % 995,6 hPa 0,0 l/m 2 min 0 min 518 W/m 16,1 km/h (3 Bft) 95,74 %
09.05.2019 14:42 16,2 C 17,8 C 17,2 C 69 % 995,6 hPa 0,0 l/m 2 min 0 min 556 W/m 16,1 km/h (3 Bft) 95,74 %
09.05.2019 14:44 16,2 C 17,8 C 17,8 C 69 % 995,6 hPa 0,0 l/m 2 min 0 min 559 W/m 16,1 km/h (3 Bft) 93,62 %
09.05.2019 14:46 16,2 C 17,8 C 17,8 C 69 % 995,6 hPa 0,0 l/m 2 min 0 min 555 W/m 22,5 km/h (4 Bft) 100,00 %
09.05.2019 14:48 16,2 C 17,8 C 17,2 C 68 % 995,7 hPa 0,0 l/m 2 min 0 min 541 W/m 12,9 km/h (3 Bft) 97,83 %
09.05.2019 14:50 16,2 C 18,3 C 17,8 C 69 % 995,6 hPa 0,0 l/m 2 min 0 min 529 W/m 19,3 km/h (3 Bft) 100,00 %
09.05.2019 14:52 16,2 C 18,3 C 17,8 C 69 % 995,6 hPa 0,0 l/m 2 min 0 min 548 W/m 19,3 km/h (3 Bft) 100,00 %
09.05.2019 14:54 16,2 C 17,8 C 17,2 C 69 % 995,6 hPa 0,0 l/m 2 min 0 min 549 W/m 25,7 km/h (4 Bft) 100,00 %
09.05.2019 14:56 16,2 C 18,3 C 17,8 C 69 % 995,6 hPa 0,0 l/m 2 min 0 min 505 W/m 16,1 km/h (3 Bft) 100,00 %
09.05.2019 14:58 16,3 C 17,8 C 17,2 C 69 % 995,6 hPa 0,0 l/m 2 min 0 min 512 W/m 12,9 km/h (3 Bft) 100,00 %
09.05.2019 15:00 16,3 C 18,3 C 17,2 C 69 % 995,5 hPa 0,0 l/m 2 min 0 min 554 W/m 16,1 km/h (3 Bft) 100,00 %
09.05.2019 15:02 16,3 C 18,9 C 17,2 C 69 % 995,6 hPa 0,0 l/m 2 min 0 min 549 W/m 12,9 km/h (3 Bft) 100,00 %
09.05.2019 15:04 16,4 C 19,4 C 17,8 C 69 % 995,6 hPa 0,0 l/m 2 min 0 min 529 W/m 12,9 km/h (3 Bft) 100,00 %
09.05.2019 15:06 16,4 C 19,4 C 18,3 C 69 % 995,7 hPa 0,0 l/m 2 min 0 min 675 W/m 19,3 km/h (3 Bft) 100,00 %
09.05.2019 15:08 16,5 C 20,6 C 18,3 C 69 % 995,8 hPa 0,0 l/m 2 min 0 min 673 W/m 6,4 km/h (2 Bft) 100,00 %
09.05.2019 15:10 16,6 C 20,6 C 18,3 C 69 % 995,8 hPa 0,0 l/m 2 min 0 min 1016 W/m 16,1 km/h (3 Bft) 97,87 %
09.05.2019 15:12 16,7 C 19,4 C 17,8 C 68 % 995,9 hPa 0,0 l/m 2 min 0 min 764 W/m 16,1 km/h (3 Bft) 97,83 %
09.05.2019 15:14 16,7 C 19,4 C 17,8 C 68 % 995,9 hPa 0,0 l/m 2 min 0 min 551 W/m 19,3 km/h (3 Bft) 97,87 %
09.05.2019 15:16 16,8 C 18,9 C 17,8 C 69 % 995,9 hPa 0,0 l/m 2 min 0 min 447 W/m 9,7 km/h (2 Bft) 95,74 %
09.05.2019 15:18 16,8 C 17,8 C 17,2 C 69 % 995,9 hPa 0,0 l/m 0 min 0 min 267 W/m 9,7 km/h (2 Bft) 97,87 %
09.05.2019 15:20 16,8 C 16,7 C 16,7 C 68 % 995,9 hPa 0,0 l/m 0 min 0 min 195 W/m 16,1 km/h (3 Bft) 97,87 %
09.05.2019 15:22 16,8 C 16,1 C 16,1 C 67 % 996,1 hPa 0,0 l/m 0 min 0 min 171 W/m 16,1 km/h (3 Bft) 97,87 %
09.05.2019 15:24 16,7 C 16,1 C 15,6 C 67 % 996,0 hPa 0,0 l/m 0 min 0 min 162 W/m 19,3 km/h (3 Bft) 97,83 %
09.05.2019 15:26 16,7 C 16,1 C 15,6 C 68 % 996,0 hPa 0,0 l/m 0 min 0 min 157 W/m 9,7 km/h (2 Bft) 97,87 %
09.05.2019 15:28 16,7 C 15,6 C 15,6 C 67 % 996,0 hPa 0,0 l/m 0 min 0 min 158 W/m 16,1 km/h (3 Bft) 97,87 %
09.05.2019 15:30 16,6 C 15,6 C 15,6 C 68 % 996,0 hPa 0,0 l/m 0 min 0 min 156 W/m 16,1 km/h (3 Bft) 95,74 %
09.05.2019 15:32 16,6 C 15,6 C 15,0 C 68 % 996,0 hPa 0,0 l/m 0 min 0 min 158 W/m 9,7 km/h (2 Bft) 97,87 %
09.05.2019 15:34 16,5 C 15,6 C 15,0 C 68 % 996,0 hPa 0,0 l/m 0 min 0 min 169 W/m 9,7 km/h (2 Bft) 97,87 %
09.05.2019 15:36 16,4 C 16,1 C 15,6 C 68 % 996,1 hPa 0,0 l/m 0 min 0 min 180 W/m 6,4 km/h (2 Bft) 97,83 %
09.05.2019 15:38 16,4 C 15,6 C 15,6 C 68 % 996,1 hPa 0,0 l/m 0 min 0 min 183 W/m 12,9 km/h (3 Bft) 97,87 %
09.05.2019 15:40 16,3 C 15,6 C 15,6 C 68 % 996,1 hPa 0,0 l/m 0 min 0 min 174 W/m 16,1 km/h (3 Bft) 97,87 %
09.05.2019 15:42 16,3 C 15,6 C 15,6 C 68 % 996,0 hPa 0,0 l/m 0 min 0 min 160 W/m 12,9 km/h (3 Bft) 97,87 %
09.05.2019 15:44 16,2 C 15,6 C 15,0 C 69 % 996,1 hPa 0,0 l/m 0 min 0 min 141 W/m 12,9 km/h (3 Bft) 95,74 %
09.05.2019 15:46 16,2 C 15,6 C 15,0 C 69 % 996,2 hPa 0,0 l/m 0 min 0 min 125 W/m 12,9 km/h (3 Bft) 97,83 %
09.05.2019 15:48 16,2 C 15,6 C 15,0 C 69 % 996,1 hPa 0,0 l/m 0 min 0 min 111 W/m 9,7 km/h (2 Bft) 97,87 %
09.05.2019 15:50 16,1 C 15,0 C 15,0 C 69 % 996,2 hPa 0,0 l/m 0 min 0 min 99 W/m 16,1 km/h (3 Bft) 97,87 %
09.05.2019 15:52 16,1 C 15,0 C 15,0 C 70 % 996,2 hPa 0,0 l/m 0 min 0 min 93 W/m 9,7 km/h (2 Bft) 97,87 %
09.05.2019 15:54 16,0 C 15,0 C 15,0 C 70 % 996,3 hPa 0,0 l/m 0 min 0 min 88 W/m 9,7 km/h (2 Bft) 97,87 %
09.05.2019 15:56 15,9 C 15,0 C 15,0 C 70 % 996,3 hPa 0,0 l/m 0 min 0 min 83 W/m 9,7 km/h (2 Bft) 97,87 %
09.05.2019 15:58 15,9 C 15,0 C 14,4 C 70 % 996,4 hPa 0,0 l/m 0 min 0 min 82 W/m 9,7 km/h (2 Bft) 95,65 %
09.05.2019 16:00 15,8 C 15,0 C 14,4 C 70 % 996,4 hPa 0,0 l/m 0 min 0 min 88 W/m 12,9 km/h (3 Bft) 97,87 %
09.05.2019 16:02 15,8 C 15,0 C 14,4 C 70 % 996,4 hPa 0,0 l/m 0 min 0 min 100 W/m 9,7 km/h (2 Bft) 97,87 %
09.05.2019 16:04 15,7 C 15,0 C 14,4 C 71 % 996,3 hPa 0,0 l/m 0 min 0 min 109 W/m 6,4 km/h (2 Bft) 97,87 %
09.05.2019 16:06 15,7 C 15,0 C 15,0 C 71 % 996,4 hPa 0,0 l/m 0 min 0 min 124 W/m 9,7 km/h (2 Bft) 100,00 %
09.05.2019 16:08 15,7 C 15,0 C 15,0 C 71 % 996,3 hPa 0,0 l/m 0 min 0 min 148 W/m 9,7 km/h (2 Bft) 97,87 %
09.05.2019 16:10 15,7 C 15,6 C 15,0 C 71 % 996,4 hPa 0,0 l/m 0 min 0 min 167 W/m 12,9 km/h (3 Bft) 100,00 %
09.05.2019 16:12 15,7 C 15,6 C 15,0 C 71 % 996,4 hPa 0,0 l/m 0 min 0 min 178 W/m 9,7 km/h (2 Bft) 100,00 %
09.05.2019 16:14 15,6 C 15,6 C 15,0 C 71 % 996,5 hPa 0,0 l/m 0 min 0 min 200 W/m 12,9 km/h (3 Bft) 100,00 %
09.05.2019 16:16 15,6 C 15,6 C 15,0 C 71 % 996,4 hPa 0,0 l/m 0 min 0 min 226 W/m 9,7 km/h (2 Bft) 100,00 %
09.05.2019 16:18 15,6 C 16,1 C 15,6 C 72 % 996,5 hPa 0,0 l/m 0 min 0 min 248 W/m 9,7 km/h (2 Bft) 97,87 %
09.05.2019 16:20 15,6 C 16,1 C 15,6 C 72 % 996,6 hPa 0,0 l/m 0 min 0 min 257 W/m 9,7 km/h (2 Bft) 100,00 %
09.05.2019 16:22 15,6 C 16,1 C 15,6 C 72 % 996,5 hPa 0,0 l/m 0 min 0 min 261 W/m 9,7 km/h (2 Bft) 100,00 %
09.05.2019 16:24 15,7 C 16,7 C 16,1 C 72 % 996,6 hPa 0,0 l/m 0 min 0 min 276 W/m 12,9 km/h (3 Bft) 100,00 %
09.05.2019 16:26 15,7 C 17,2 C 16,1 C 72 % 996,5 hPa 0,0 l/m 0 min 0 min 311 W/m 12,9 km/h (3 Bft) 100,00 %
09.05.2019 16:28 15,7 C 17,2 C 16,7 C 72 % 996,5 hPa 0,0 l/m 2 min 0 min 350 W/m 12,9 km/h (3 Bft) 100,00 %
09.05.2019 16:30 15,8 C 17,2 C 16,7 C 72 % 996,5 hPa 0,0 l/m 2 min 0 min 372 W/m 9,7 km/h (2 Bft) 97,87 %
09.05.2019 16:32 15,8 C 17,8 C 17,2 C 72 % 996,5 hPa 0,0 l/m 2 min 0 min 401 W/m 6,4 km/h (2 Bft) 95,74 %
09.05.2019 16:34 15,9 C 18,3 C 17,2 C 73 % 996,5 hPa 0,0 l/m 2 min 0 min 441 W/m 6,4 km/h (2 Bft) 97,83 %
09.05.2019 16:36 16,0 C 17,8 C 16,7 C 73 % 996,5 hPa 0,0 l/m 2 min 0 min 425 W/m 16,1 km/h (3 Bft) 97,87 %
09.05.2019 16:38 16,1 C 17,2 C 16,7 C 72 % 996,4 hPa 0,0 l/m 2 min 0 min 374 W/m 19,3 km/h (3 Bft) 97,87 %
09.05.2019 16:40 16,2 C 17,2 C 16,7 C 72 % 996,4 hPa 0,0 l/m 2 min 0 min 382 W/m 12,9 km/h (3 Bft) 97,87 %
09.05.2019 16:42 16,2 C 17,2 C 16,7 C 71 % 996,4 hPa 0,0 l/m 2 min 0 min 474 W/m 9,7 km/h (2 Bft) 97,87 %
09.05.2019 16:44 16,3 C 17,8 C 16,7 C 71 % 996,5 hPa 0,0 l/m 0 min 0 min 306 W/m 9,7 km/h (2 Bft) 97,87 %
09.05.2019 16:46 16,4 C 17,8 C 16,7 C 71 % 996,5 hPa 0,0 l/m 2 min 0 min 324 W/m 12,9 km/h (3 Bft) 97,83 %
09.05.2019 16:48 16,5 C 17,8 C 16,7 C 70 % 996,4 hPa 0,0 l/m 2 min 0 min 826 W/m 9,7 km/h (2 Bft) 97,87 %
09.05.2019 16:50 16,6 C 18,3 C 17,2 C 71 % 996,5 hPa 0,0 l/m 2 min 0 min 844 W/m 19,3 km/h (3 Bft) 93,62 %
09.05.2019 16:52 16,7 C 17,8 C 17,2 C 69 % 996,5 hPa 0,0 l/m 2 min 0 min 795 W/m 16,1 km/h (3 Bft) 93,62 %
09.05.2019 16:54 16,8 C 17,8 C 17,2 C 69 % 996,6 hPa 0,0 l/m 2 min 0 min 811 W/m 9,7 km/h (2 Bft) 91,49 %
09.05.2019 16:56 16,9 C 18,3 C 17,2 C 69 % 996,6 hPa 0,0 l/m 2 min 0 min 805 W/m 9,7 km/h (2 Bft) 95,74 %
09.05.2019 16:58 17,0 C 17,8 C 16,7 C 68 % 996,6 hPa 0,0 l/m 2 min 0 min 315 W/m 12,9 km/h (3 Bft) 95,65 %
09.05.2019 17:00 17,1 C 17,2 C 16,7 C 67 % 996,6 hPa 0,0 l/m 0 min 0 min 187 W/m 12,9 km/h (3 Bft) 97,87 %
09.05.2019 17:02 17,1 C 17,8 C 16,7 C 67 % 996,7 hPa 0,0 l/m 0 min 0 min 189 W/m 6,4 km/h (2 Bft) 97,87 %
09.05.2019 17:04 17,2 C 17,2 C 16,7 C 67 % 996,7 hPa 0,0 l/m 0 min 0 min 209 W/m 9,7 km/h (2 Bft) 95,74 %
09.05.2019 17:06 17,2 C 17,8 C 16,7 C 67 % 996,6 hPa 0,0 l/m 0 min 0 min 257 W/m 6,4 km/h (2 Bft) 95,74 %
09.05.2019 17:08 17,2 C 18,3 C 16,7 C 68 % 996,7 hPa 0,0 l/m 2 min 0 min 394 W/m 9,7 km/h (2 Bft) 93,48 %
09.05.2019 17:10 17,3 C 17,8 C 16,7 C 67 % 996,6 hPa 0,0 l/m 2 min 0 min 729 W/m 16,1 km/h (3 Bft) 100,00 %
09.05.2019 17:12 17,3 C 17,8 C 16,7 C 67 % 996,7 hPa 0,0 l/m 2 min 0 min 742 W/m 9,7 km/h (2 Bft) 100,00 %
09.05.2019 17:14 17,4 C 18,3 C 17,2 C 67 % 996,6 hPa 0,0 l/m 2 min 0 min 770 W/m 16,1 km/h (3 Bft) 97,87 %
09.05.2019 17:16 17,4 C 17,8 C 16,7 C 66 % 996,6 hPa 0,0 l/m 2 min 0 min 777 W/m 25,7 km/h (4 Bft) 97,87 %
09.05.2019 17:18 17,5 C 17,2 C 16,7 C 66 % 996,6 hPa 0,0 l/m 0 min 0 min 202 W/m 12,9 km/h (3 Bft) 97,87 %
09.05.2019 17:20 17,5 C 17,2 C 16,7 C 66 % 996,7 hPa 0,0 l/m 2 min 0 min 343 W/m 12,9 km/h (3 Bft) 97,83 %
09.05.2019 17:22 17,5 C 17,2 C 16,7 C 66 % 996,6 hPa 0,0 l/m 2 min 0 min 695 W/m 19,3 km/h (3 Bft) 97,87 %
09.05.2019 17:24 17,5 C 17,2 C 16,7 C 66 % 996,7 hPa 0,0 l/m 2 min 0 min 700 W/m 9,7 km/h (2 Bft) 93,62 %
09.05.2019 17:26 17,6 C 17,2 C 16,7 C 66 % 996,7 hPa 0,0 l/m 2 min 0 min 684 W/m 12,9 km/h (3 Bft) 97,87 %
09.05.2019 17:28 17,6 C 17,2 C 16,7 C 66 % 996,6 hPa 0,0 l/m 2 min 0 min 677 W/m 9,7 km/h (2 Bft) 97,87 %
09.05.2019 17:30 17,6 C 17,8 C 17,8 C 66 % 996,7 hPa 0,0 l/m 2 min 0 min 664 W/m 6,4 km/h (2 Bft) 95,74 %
09.05.2019 17:32 17,7 C 18,3 C 18,3 C 67 % 996,7 hPa 0,0 l/m 2 min 0 min 674 W/m 9,7 km/h (2 Bft) 95,65 %
09.05.2019 17:34 17,7 C 18,3 C 18,3 C 66 % 996,8 hPa 0,0 l/m 2 min 0 min 676 W/m 19,3 km/h (3 Bft) 97,87 %
09.05.2019 17:36 17,8 C 17,2 C 17,8 C 65 % 996,7 hPa 0,0 l/m 0 min 0 min 181 W/m 9,7 km/h (2 Bft) 97,87 %
09.05.2019 17:38 17,8 C 17,2 C 17,2 C 65 % 996,6 hPa 0,0 l/m 0 min 0 min 164 W/m 12,9 km/h (3 Bft) 97,87 %
09.05.2019 17:40 17,8 C 16,7 C 16,7 C 65 % 996,7 hPa 0,0 l/m 0 min 0 min 150 W/m 12,9 km/h (3 Bft) 97,87 %
09.05.2019 17:42 17,8 C 16,7 C 16,1 C 65 % 996,7 hPa 0,0 l/m 0 min 0 min 148 W/m 12,9 km/h (3 Bft) 97,87 %
09.05.2019 17:44 17,7 C 17,2 C 16,7 C 65 % 996,7 hPa 0,0 l/m 0 min 0 min 200 W/m 9,7 km/h (2 Bft) 97,83 %
09.05.2019 17:46 17,8 C 17,2 C 16,7 C 65 % 996,8 hPa 0,0 l/m 2 min 0 min 255 W/m 12,9 km/h (3 Bft) 97,87 %
09.05.2019 17:48 17,8 C 17,8 C 16,7 C 65 % 996,7 hPa 0,0 l/m 2 min 0 min 333 W/m 9,7 km/h (2 Bft) 97,87 %
09.05.2019 17:50 17,8 C 18,3 C 17,2 C 65 % 996,7 hPa 0,0 l/m 2 min 0 min 647 W/m 6,4 km/h (2 Bft) 97,87 %
09.05.2019 17:52 17,9 C 18,3 C 17,8 C 66 % 996,8 hPa 0,0 l/m 2 min 0 min 593 W/m 12,9 km/h (3 Bft) 97,87 %
09.05.2019 17:54 17,9 C 18,3 C 17,2 C 65 % 996,8 hPa 0,0 l/m 2 min 0 min 595 W/m 12,9 km/h (3 Bft) 97,87 %
09.05.2019 17:56 18,0 C 18,3 C 17,8 C 65 % 996,8 hPa 0,0 l/m 2 min 0 min 626 W/m 22,5 km/h (4 Bft) 93,48 %
09.05.2019 17:58 18,1 C 18,3 C 17,8 C 66 % 996,8 hPa 0,0 l/m 2 min 0 min 609 W/m 16,1 km/h (3 Bft) 96,00 %
09.05.2019 18:00 18,1 C 18,9 C 17,8 C 66 % 996,9 hPa 0,0 l/m 2 min 0 min 573 W/m 16,1 km/h (3 Bft) 97,87 %
09.05.2019 18:02 18,2 C 18,3 C 17,2 C 66 % 996,9 hPa 0,0 l/m 2 min 0 min 564 W/m 12,9 km/h (3 Bft) 97,87 %
09.05.2019 18:04 18,3 C 18,3 C 17,2 C 65 % 997,0 hPa 0,0 l/m 2 min 0 min 520 W/m 9,7 km/h (2 Bft) 95,74 %
09.05.2019 18:07 18,3 C 17,8 C 16,7 C 65 % 997,0 hPa 0,0 l/m 0 min 0 min 188 W/m 6,4 km/h (2 Bft) 94,29 %
09.05.2019 18:08 18,3 C 17,2 C 16,7 C 65 % 997,0 hPa 0,0 l/m 0 min 0 min 98 W/m 3,2 km/h (1 Bft) 91,30 %
09.05.2019 18:10 18,3 C 17,2 C 16,1 C 65 % 997,0 hPa 0,0 l/m 0 min 0 min 112 W/m 6,4 km/h (2 Bft) 95,74 %
09.05.2019 18:12 18,3 C 17,2 C 16,7 C 65 % 997,0 hPa 0,0 l/m 0 min 0 min 120 W/m 9,7 km/h (2 Bft) 95,74 %
09.05.2019 18:14 18,3 C 17,2 C 16,1 C 66 % 996,9 hPa 0,0 l/m 0 min 0 min 89 W/m 9,7 km/h (2 Bft) 95,74 %
09.05.2019 18:16 18,3 C 16,7 C 16,1 C 66 % 997,0 hPa 0,0 l/m 0 min 0 min 70 W/m 3,2 km/h (1 Bft) 97,87 %
09.05.2019 18:18 18,2 C 16,7 C 16,1 C 64 % 997,0 hPa 0,0 l/m 0 min 0 min 58 W/m 6,4 km/h (2 Bft) 97,83 %
09.05.2019 18:20 18,1 C 16,1 C 15,6 C 63 % 997,0 hPa 0,0 l/m 0 min 0 min 53 W/m 9,7 km/h (2 Bft) 93,62 %
09.05.2019 18:22 18,0 C 16,1 C 15,6 C 63 % 997,0 hPa 0,0 l/m 0 min 0 min 55 W/m 6,4 km/h (2 Bft) 97,87 %
09.05.2019 18:24 17,9 C 16,1 C 15,6 C 63 % 997,0 hPa 0,0 l/m 0 min 0 min 60 W/m 12,9 km/h (3 Bft) 97,87 %
09.05.2019 18:26 17,8 C 16,1 C 15,6 C 63 % 997,0 hPa 0,0 l/m 0 min 0 min 61 W/m 6,4 km/h (2 Bft) 97,87 %
09.05.2019 18:28 17,7 C 16,1 C 15,6 C 63 % 997,0 hPa 0,0 l/m 0 min 0 min 62 W/m 12,9 km/h (3 Bft) 97,87 %
09.05.2019 18:30 17,6 C 16,1 C 15,6 C 64 % 997,1 hPa 0,0 l/m 0 min 0 min 65 W/m 9,7 km/h (2 Bft) 97,83 %
09.05.2019 18:32 17,4 C 16,1 C 15,6 C 64 % 997,1 hPa 0,0 l/m 0 min 0 min 72 W/m 6,4 km/h (2 Bft) 97,87 %
09.05.2019 18:34 17,4 C 16,1 C 15,6 C 64 % 997,1 hPa 0,0 l/m 0 min 0 min 76 W/m 12,9 km/h (3 Bft) 97,87 %
09.05.2019 18:36 17,3 C 16,1 C 15,6 C 65 % 997,0 hPa 0,0 l/m 0 min 0 min 82 W/m 9,7 km/h (2 Bft) 95,74 %
09.05.2019 18:38 17,2 C 16,1 C 15,6 C 65 % 997,0 hPa 0,0 l/m 0 min 0 min 84 W/m 12,9 km/h (3 Bft) 95,74 %
09.05.2019 18:40 17,2 C 16,1 C 15,6 C 65 % 997,1 hPa 0,0 l/m 0 min 0 min 83 W/m 6,4 km/h (2 Bft) 97,87 %
09.05.2019 18:42 17,1 C 16,1 C 15,6 C 66 % 997,2 hPa 0,0 l/m 0 min 0 min 82 W/m 12,9 km/h (3 Bft) 97,83 %
09.05.2019 18:44 17,1 C 16,1 C 15,6 C 66 % 997,1 hPa 0,0 l/m 0 min 0 min 80 W/m 9,7 km/h (2 Bft) 97,87 %
09.05.2019 18:46 17,0 C 16,1 C 15,6 C 66 % 997,1 hPa 0,0 l/m 0 min 0 min 78 W/m 9,7 km/h (2 Bft) 97,87 %
09.05.2019 18:48 16,9 C 16,1 C 15,6 C 66 % 997,2 hPa 0,0 l/m 0 min 0 min 74 W/m 6,4 km/h (2 Bft) 97,87 %
09.05.2019 18:50 16,9 C 16,1 C 15,6 C 66 % 997,2 hPa 0,0 l/m 0 min 0 min 70 W/m 6,4 km/h (2 Bft) 100,00 %
09.05.2019 18:52 16,8 C 16,1 C 15,6 C 67 % 997,2 hPa 0,0 l/m 0 min 0 min 71 W/m 6,4 km/h (2 Bft) 100,00 %
09.05.2019 18:54 16,8 C 16,1 C 15,6 C 67 % 997,2 hPa 0,0 l/m 0 min 0 min 76 W/m 16,1 km/h (3 Bft) 100,00 %
09.05.2019 18:56 16,8 C 16,1 C 15,6 C 66 % 997,2 hPa 0,0 l/m 0 min 0 min 77 W/m 16,1 km/h (3 Bft) 100,00 %
09.05.2019 18:58 16,7 C 16,1 C 15,6 C 67 % 997,3 hPa 0,0 l/m 0 min 0 min 77 W/m 9,7 km/h (2 Bft) 97,87 %
09.05.2019 19:00 16,7 C 16,1 C 15,6 C 67 % 997,3 hPa 0,0 l/m 0 min 0 min 76 W/m 9,7 km/h (2 Bft) 97,87 %
09.05.2019 19:02 16,7 C 16,1 C 15,6 C 67 % 997,2 hPa 0,0 l/m 0 min 0 min 73 W/m 9,7 km/h (2 Bft) 97,14 %
09.05.2019 19:04 16,6 C 16,1 C 15,6 C 68 % 997,2 hPa 0,0 l/m 0 min 0 min 70 W/m 9,7 km/h (2 Bft) 95,74 %
09.05.2019 19:06 16,6 C 16,1 C 15,6 C 68 % 997,3 hPa 0,0 l/m 0 min 0 min 70 W/m 6,4 km/h (2 Bft) 98,28 %
09.05.2019 19:08 16,6 C 16,1 C 15,0 C 68 % 997,3 hPa 0,0 l/m 0 min 0 min 69 W/m 9,7 km/h (2 Bft) 97,14 %
09.05.2019 19:10 16,6 C 16,1 C 15,0 C 68 % 997,4 hPa 0,0 l/m 0 min 0 min 68 W/m 3,2 km/h (1 Bft) 97,87 %
09.05.2019 19:12 16,6 C 15,6 C 15,0 C 69 % 997,4 hPa 0,0 l/m 0 min 0 min 67 W/m 6,4 km/h (2 Bft) 95,74 %
09.05.2019 19:14 16,6 C 15,6 C 15,0 C 70 % 997,4 hPa 0,0 l/m 0 min 0 min 69 W/m 6,4 km/h (2 Bft) 97,87 %
09.05.2019 19:16 16,6 C 15,6 C 15,0 C 71 % 997,4 hPa 0,0 l/m 0 min 0 min 72 W/m 9,7 km/h (2 Bft) 97,87 %
09.05.2019 19:18 16,5 C 15,6 C 15,0 C 72 % 997,5 hPa 0,0 l/m 0 min 0 min 75 W/m 9,7 km/h (2 Bft) 95,74 %
09.05.2019 19:20 16,4 C 15,6 C 15,0 C 72 % 997,5 hPa 0,0 l/m 0 min 0 min 77 W/m 6,4 km/h (2 Bft) 97,83 %
09.05.2019 19:22 16,4 C 15,6 C 15,0 C 72 % 997,5 hPa 0,0 l/m 0 min 0 min 81 W/m 3,2 km/h (1 Bft) 97,87 %
09.05.2019 19:24 16,4 C 15,6 C 15,0 C 72 % 997,5 hPa 0,0 l/m 0 min 0 min 86 W/m 6,4 km/h (2 Bft) 97,87 %
09.05.2019 19:26 16,4 C 15,6 C 15,0 C 72 % 997,5 hPa 0,0 l/m 0 min 0 min 96 W/m 3,2 km/h (1 Bft) 97,87 %
09.05.2019 19:28 16,3 C 15,6 C 15,0 C 72 % 997,5 hPa 0,0 l/m 0 min 0 min 112 W/m 3,2 km/h (1 Bft) 97,87 %
09.05.2019 19:30 16,3 C 15,6 C 15,0 C 72 % 997,6 hPa 0,0 l/m 2 min 0 min 133 W/m 3,2 km/h (1 Bft) 95,74 %
09.05.2019 19:32 16,3 C 15,6 C 15,0 C 72 % 997,6 hPa 0,0 l/m 2 min 0 min 135 W/m 3,2 km/h (1 Bft) 97,83 %
09.05.2019 19:34 16,3 C 16,1 C 15,0 C 72 % 997,6 hPa 0,0 l/m 2 min 0 min 113 W/m 9,7 km/h (2 Bft) 97,87 %
09.05.2019 19:36 16,3 C 15,6 C 15,0 C 72 % 997,6 hPa 0,0 l/m 0 min 0 min 89 W/m 3,2 km/h (1 Bft) 98,31 %
09.05.2019 19:38 16,3 C 15,6 C 15,0 C 72 % 997,7 hPa 0,0 l/m 0 min 0 min 64 W/m 6,4 km/h (2 Bft) 97,14 %
09.05.2019 19:40 16,2 C 15,6 C 15,0 C 71 % 997,7 hPa 0,0 l/m 0 min 0 min 45 W/m 6,4 km/h (2 Bft) 97,87 %
09.05.2019 19:42 16,2 C 15,0 C 15,0 C 71 % 997,7 hPa 0,0 l/m 0 min 0 min 31 W/m 9,7 km/h (2 Bft) 97,87 %
09.05.2019 19:44 16,2 C 15,0 C 14,4 C 71 % 997,7 hPa 0,0 l/m 0 min 0 min 24 W/m 6,4 km/h (2 Bft) 97,83 %
09.05.2019 19:46 16,1 C 14,4 C 14,4 C 72 % 997,8 hPa 0,0 l/m 0 min 0 min 19 W/m 6,4 km/h (2 Bft) 100,00 %
09.05.2019 19:48 16,1 C 14,4 C 13,9 C 72 % 997,7 hPa 0,0 l/m 0 min 0 min 16 W/m 6,4 km/h (2 Bft) 100,00 %
09.05.2019 19:50 16,1 C 14,4 C 13,9 C 71 % 997,7 hPa 0,0 l/m 0 min 0 min 14 W/m 3,2 km/h (1 Bft) 100,00 %
09.05.2019 19:52 16,0 C 14,4 C 13,9 C 71 % 997,7 hPa 0,0 l/m 0 min 0 min 13 W/m 3,2 km/h (1 Bft) 97,87 %
09.05.2019 19:54 16,0 C 14,4 C 13,9 C 71 % 997,8 hPa 0,0 l/m 0 min 0 min 12 W/m 9,7 km/h (2 Bft) 100,00 %
09.05.2019 19:56 15,9 C 14,4 C 13,9 C 71 % 997,8 hPa 0,0 l/m 0 min 0 min 11 W/m 6,4 km/h (2 Bft) 97,83 %
09.05.2019 19:58 15,9 C 14,4 C 13,9 C 71 % 997,8 hPa 0,0 l/m 0 min 0 min 11 W/m 3,2 km/h (1 Bft) 100,00 %
09.05.2019 20:00 15,8 C 14,4 C 13,9 C 72 % 997,8 hPa 0,0 l/m 0 min 0 min 9 W/m 3,2 km/h (1 Bft) 100,00 %
09.05.2019 20:02 15,8 C 14,4 C 13,9 C 72 % 997,9 hPa 0,0 l/m 0 min 0 min 8 W/m 3,2 km/h (1 Bft) 98,15 %
09.05.2019 20:04 15,7 C 14,4 C 13,9 C 72 % 998,0 hPa 0,0 l/m 0 min 0 min 7 W/m 6,4 km/h (2 Bft) 100,00 %
09.05.2019 20:06 15,7 C 14,4 C 13,9 C 72 % 998,0 hPa 0,0 l/m 0 min 0 min 6 W/m 3,2 km/h (1 Bft) 97,87 %
09.05.2019 20:08 15,7 C 14,4 C 13,9 C 73 % 998,0 hPa 0,0 l/m 0 min 0 min 6 W/m 6,4 km/h (2 Bft) 100,00 %
09.05.2019 20:10 15,6 C 14,4 C 13,9 C 73 % 998,0 hPa 0,0 l/m 0 min 0 min 7 W/m 6,4 km/h (2 Bft) 100,00 %
09.05.2019 20:12 15,6 C 14,4 C 13,9 C 73 % 998,0 hPa 0,0 l/m 0 min 0 min 8 W/m 3,2 km/h (1 Bft) 97,87 %
09.05.2019 20:14 15,6 C 14,4 C 13,9 C 73 % 998,1 hPa 0,0 l/m 0 min 0 min 9 W/m 6,4 km/h (2 Bft) 100,00 %
09.05.2019 20:16 15,5 C 14,4 C 13,9 C 73 % 998,2 hPa 0,0 l/m 0 min 0 min 8 W/m 12,9 km/h (3 Bft) 100,00 %
09.05.2019 20:18 15,4 C 13,9 C 13,9 C 73 % 998,2 hPa 0,0 l/m 0 min 0 min 3 W/m 22,5 km/h (4 Bft) 100,00 %
09.05.2019 20:20 15,3 C 13,9 C 13,9 C 73 % 998,5 hPa 0,0 l/m 0 min 0 min 0 W/m 35,4 km/h (5 Bft) 97,83 %
09.05.2019 20:22 15,2 C 13,3 C 12,8 C 74 % 998,5 hPa 0,0 l/m 0 min 0 min 0 W/m 22,5 km/h (4 Bft) 97,87 %
09.05.2019 20:24 14,9 C 12,8 C 12,8 C 74 % 998,6 hPa 0,0 l/m 0 min 0 min 0 W/m 22,5 km/h (4 Bft) 97,87 %
09.05.2019 20:26 14,7 C 12,2 C 12,2 C 74 % 998,6 hPa 0,0 l/m 0 min 0 min 0 W/m 25,7 km/h (4 Bft) 97,87 %
09.05.2019 20:28 14,3 C 12,2 C 12,2 C 75 % 998,7 hPa 0,0 l/m 0 min 0 min 0 W/m 22,5 km/h (4 Bft) 95,74 %
09.05.2019 20:30 14,2 C 11,7 C 11,7 C 76 % 998,7 hPa 0,0 l/m 0 min 2 min 0 W/m 19,3 km/h (3 Bft) 95,74 %
09.05.2019 20:32 13,9 C 10,0 C 10,6 C 77 % 998,8 hPa 0,2 l/m 0 min 2 min 0 W/m 19,3 km/h (3 Bft) 97,87 %
09.05.2019 20:34 13,7 C 9,4 C 10,0 C 79 % 998,8 hPa 0,0 l/m 0 min 2 min 0 W/m 19,3 km/h (3 Bft) 97,87 %
09.05.2019 20:36 13,4 C 9,4 C 9,4 C 80 % 998,9 hPa 0,4 l/m 0 min 2 min 0 W/m 22,5 km/h (4 Bft) 95,74 %
09.05.2019 20:38 13,2 C 9,4 C 9,4 C 81 % 999,0 hPa 0,8 l/m 0 min 2 min 0 W/m 12,9 km/h (3 Bft) 97,87 %
09.05.2019 20:40 13,0 C 9,4 C 9,4 C 83 % 999,1 hPa 0,4 l/m 0 min 2 min 0 W/m 16,1 km/h (3 Bft) 97,87 %
09.05.2019 20:42 12,8 C 9,4 C 9,4 C 84 % 999,2 hPa 0,2 l/m 0 min 2 min 0 W/m 12,9 km/h (3 Bft) 95,74 %
09.05.2019 20:44 12,7 C 9,4 C 9,4 C 84 % 999,1 hPa 0,0 l/m 0 min 2 min 0 W/m 9,7 km/h (2 Bft) 97,83 %
09.05.2019 20:46 12,6 C 9,4 C 9,4 C 85 % 999,2 hPa 0,0 l/m 0 min 2 min 0 W/m 12,9 km/h (3 Bft) 97,87 %
09.05.2019 20:48 12,4 C 9,4 C 9,4 C 85 % 999,3 hPa 0,2 l/m 0 min 2 min 0 W/m 16,1 km/h (3 Bft) 97,87 %
09.05.2019 20:50 12,3 C 9,4 C 9,4 C 86 % 999,4 hPa 0,2 l/m 0 min 2 min 0 W/m 19,3 km/h (3 Bft) 95,74 %
09.05.2019 20:52 12,2 C 9,4 C 9,4 C 86 % 999,4 hPa 0,0 l/m 0 min 2 min 0 W/m 16,1 km/h (3 Bft) 97,87 %
09.05.2019 20:54 12,1 C 9,4 C 9,4 C 87 % 999,4 hPa 0,2 l/m 0 min 2 min 0 W/m 12,9 km/h (3 Bft) 97,87 %
09.05.2019 20:56 11,9 C 9,4 C 9,4 C 87 % 999,4 hPa 0,2 l/m 0 min 2 min 0 W/m 16,1 km/h (3 Bft) 97,83 %
09.05.2019 20:58 11,8 C 9,4 C 9,4 C 88 % 999,4 hPa 0,2 l/m 0 min 2 min 0 W/m 16,1 km/h (3 Bft) 97,87 %
09.05.2019 21:00 11,7 C 9,4 C 9,4 C 88 % 999,5 hPa 0,2 l/m 0 min 2 min 0 W/m 19,3 km/h (3 Bft) 97,87 %
09.05.2019 21:02 11,6 C 9,4 C 9,4 C 88 % 999,6 hPa 0,4 l/m 0 min 2 min 0 W/m 12,9 km/h (3 Bft) 97,87 %
09.05.2019 21:04 11,6 C 9,4 C 9,4 C 89 % 999,6 hPa 0,0 l/m 0 min 2 min 0 W/m 6,4 km/h (2 Bft) 97,87 %
09.05.2019 21:06 11,4 C 9,4 C 9,4 C 89 % 999,6 hPa 0,2 l/m 0 min 2 min 0 W/m 12,9 km/h (3 Bft) 95,74 %
09.05.2019 21:08 11,4 C 9,4 C 9,4 C 89 % 999,6 hPa 0,4 l/m 0 min 2 min 0 W/m 9,7 km/h (2 Bft) 97,83 %
09.05.2019 21:10 11,3 C 9,4 C 9,4 C 90 % 999,6 hPa 0,2 l/m 0 min 2 min 0 W/m 9,7 km/h (2 Bft) 97,87 %
09.05.2019 21:12 11,3 C 9,4 C 9,4 C 90 % 999,6 hPa 0,0 l/m 0 min 2 min 0 W/m 12,9 km/h (3 Bft) 97,87 %
09.05.2019 21:14 11,2 C 9,4 C 8,9 C 90 % 999,5 hPa 0,0 l/m 0 min 2 min 0 W/m 9,7 km/h (2 Bft) 100,00 %
09.05.2019 21:16 11,2 C 9,4 C 8,9 C 91 % 999,5 hPa 0,0 l/m 0 min 2 min 0 W/m 6,4 km/h (2 Bft) 100,00 %
09.05.2019 21:18 11,1 C 9,4 C 8,9 C 91 % 999,6 hPa 0,2 l/m 0 min 2 min 0 W/m 9,7 km/h (2 Bft) 100,00 %
09.05.2019 21:20 11,1 C 9,4 C 8,9 C 91 % 999,6 hPa 0,0 l/m 0 min 2 min 0 W/m 12,9 km/h (3 Bft) 100,00 %
09.05.2019 21:22 11,1 C 9,4 C 8,9 C 91 % 999,6 hPa 0,0 l/m 0 min 2 min 0 W/m 6,4 km/h (2 Bft) 100,00 %
09.05.2019 21:24 11,1 C 9,4 C 9,4 C 91 % 999,6 hPa 0,0 l/m 0 min 0 min 0 W/m 6,4 km/h (2 Bft) 97,87 %
09.05.2019 21:26 11,0 C 9,4 C 8,9 C 91 % 999,6 hPa 0,0 l/m 0 min 0 min 0 W/m 12,9 km/h (3 Bft) 100,00 %
09.05.2019 21:28 11,0 C 9,4 C 8,9 C 92 % 999,6 hPa 0,0 l/m 0 min 0 min 0 W/m 9,7 km/h (2 Bft) 100,00 %
09.05.2019 21:30 10,9 C 9,4 C 9,4 C 92 % 999,6 hPa 0,0 l/m 0 min 2 min 0 W/m 3,2 km/h (1 Bft) 97,83 %
09.05.2019 21:32 10,9 C 9,4 C 9,4 C 92 % 999,8 hPa 0,0 l/m 0 min 2 min 0 W/m 9,7 km/h (2 Bft) 97,92 %
09.05.2019 21:34 10,9 C 9,4 C 9,4 C 92 % 999,6 hPa 0,0 l/m 0 min 2 min 0 W/m 9,7 km/h (2 Bft) 97,87 %
09.05.2019 21:36 10,9 C 9,4 C 8,9 C 92 % 999,6 hPa 0,0 l/m 0 min 2 min 0 W/m 12,9 km/h (3 Bft) 97,87 %
09.05.2019 21:38 10,9 C 9,4 C 8,9 C 92 % 999,6 hPa 0,0 l/m 0 min 2 min 0 W/m 9,7 km/h (2 Bft) 95,74 %
09.05.2019 21:40 10,8 C 9,4 C 8,9 C 92 % 999,6 hPa 0,0 l/m 0 min 0 min 0 W/m 3,2 km/h (1 Bft) 97,87 %
09.05.2019 21:42 10,8 C 9,4 C 8,9 C 92 % 999,7 hPa 0,2 l/m 0 min 0 min 0 W/m 6,4 km/h (2 Bft) 97,87 %
09.05.2019 21:44 10,8 C 9,4 C 9,4 C 93 % 999,8 hPa 0,0 l/m 0 min 0 min 0 W/m 6,4 km/h (2 Bft) 97,83 %
09.05.2019 21:46 10,8 C 9,4 C 9,4 C 93 % 999,8 hPa 0,0 l/m 0 min 2 min 0 W/m 3,2 km/h (1 Bft) 95,74 %
09.05.2019 21:48 10,8 C 9,4 C 9,4 C 93 % 999,9 hPa 0,0 l/m 0 min 2 min 0 W/m 6,4 km/h (2 Bft) 97,87 %
09.05.2019 21:50 10,8 C 9,4 C 9,4 C 93 % 999,9 hPa 0,0 l/m 0 min 2 min 0 W/m 9,7 km/h (2 Bft) 97,87 %
09.05.2019 21:52 10,8 C 9,4 C 9,4 C 93 % 1000,1 hPa 0,0 l/m 0 min 2 min 0 W/m 9,7 km/h (2 Bft) 93,62 %
09.05.2019 21:54 10,8 C 9,4 C 9,4 C 93 % 1000,1 hPa 0,0 l/m 0 min 2 min 0 W/m 9,7 km/h (2 Bft) 93,48 %
09.05.2019 21:56 10,8 C 9,4 C 9,4 C 93 % 1000,1 hPa 0,0 l/m 0 min 2 min 0 W/m 12,9 km/h (3 Bft) 93,62 %
09.05.2019 21:58 10,8 C 9,4 C 9,4 C 93 % 1000,1 hPa 0,0 l/m 0 min 0 min 0 W/m 9,7 km/h (2 Bft) 95,74 %
09.05.2019 22:00 10,8 C 9,4 C 9,4 C 94 % 1000,1 hPa 0,0 l/m 0 min 0 min 0 W/m 12,9 km/h (3 Bft) 95,74 %
09.05.2019 22:02 10,8 C 9,4 C 9,4 C 94 % 1000,1 hPa 0,0 l/m 0 min 0 min 0 W/m 12,9 km/h (3 Bft) 89,36 %
09.05.2019 22:04 10,8 C 9,4 C 9,4 C 94 % 1000,2 hPa 0,0 l/m 0 min 0 min 0 W/m 9,7 km/h (2 Bft) 95,74 %
09.05.2019 22:06 10,8 C 9,4 C 9,4 C 94 % 1000,2 hPa 0,0 l/m 0 min 0 min 0 W/m 6,4 km/h (2 Bft) 95,65 %
09.05.2019 22:08 10,8 C 9,4 C 9,4 C 94 % 1000,3 hPa 0,0 l/m 0 min 0 min 0 W/m 9,7 km/h (2 Bft) 95,74 %
09.05.2019 22:10 10,8 C 9,4 C 9,4 C 94 % 1000,3 hPa 0,0 l/m 0 min 0 min 0 W/m 6,4 km/h (2 Bft) 95,74 %
09.05.2019 22:12 10,8 C 9,4 C 9,4 C 94 % 1000,2 hPa 0,0 l/m 0 min 0 min 0 W/m 9,7 km/h (2 Bft) 93,62 %
09.05.2019 22:14 10,9 C 9,4 C 9,4 C 94 % 1000,3 hPa 0,0 l/m 0 min 0 min 0 W/m 12,9 km/h (3 Bft) 95,74 %
09.05.2019 22:16 10,9 C 9,4 C 9,4 C 94 % 1000,3 hPa 0,0 l/m 0 min 0 min 0 W/m 6,4 km/h (2 Bft) 95,74 %
09.05.2019 22:18 10,9 C 10,0 C 9,4 C 94 % 1000,3 hPa 0,0 l/m 0 min 0 min 0 W/m 6,4 km/h (2 Bft) 95,65 %
09.05.2019 22:20 10,9 C 10,0 C 9,4 C 94 % 1000,4 hPa 0,0 l/m 0 min 0 min 0 W/m 3,2 km/h (1 Bft) 93,62 %
09.05.2019 22:22 10,9 C 10,0 C 9,4 C 94 % 1000,4 hPa 0,0 l/m 0 min 0 min 0 W/m 3,2 km/h (1 Bft) 95,74 %
09.05.2019 22:24 10,9 C 9,4 C 9,4 C 95 % 1000,4 hPa 0,0 l/m 0 min 0 min 0 W/m 9,7 km/h (2 Bft) 95,74 %
09.05.2019 22:26 10,9 C 9,4 C 9,4 C 95 % 1000,4 hPa 0,0 l/m 0 min 0 min 0 W/m 9,7 km/h (2 Bft) 95,74 %
09.05.2019 22:28 10,9 C 9,4 C 9,4 C 95 % 1000,4 hPa 0,0 l/m 0 min 0 min 0 W/m 9,7 km/h (2 Bft) 93,62 %
09.05.2019 22:30 10,9 C 9,4 C 9,4 C 95 % 1000,5 hPa 0,0 l/m 0 min 0 min 0 W/m 6,4 km/h (2 Bft) 93,48 %
09.05.2019 22:32 10,9 C 9,4 C 9,4 C 95 % 1000,6 hPa 0,0 l/m 0 min 2 min 0 W/m 12,9 km/h (3 Bft) 95,74 %
09.05.2019 22:34 10,9 C 10,0 C 9,4 C 95 % 1000,5 hPa 0,0 l/m 0 min 0 min 0 W/m 12,9 km/h (3 Bft) 97,87 %
09.05.2019 22:36 10,9 C 10,0 C 9,4 C 95 % 1000,7 hPa 0,0 l/m 0 min 0 min 0 W/m 9,7 km/h (2 Bft) 93,62 %
09.05.2019 22:38 10,9 C 10,0 C 9,4 C 95 % 1000,6 hPa 0,0 l/m 0 min 0 min 0 W/m 9,7 km/h (2 Bft) 100,00 %
09.05.2019 22:40 10,9 C 10,0 C 9,4 C 95 % 1000,7 hPa 0,0 l/m 0 min 0 min 0 W/m 9,7 km/h (2 Bft) 97,87 %
09.05.2019 22:42 10,9 C 10,0 C 9,4 C 95 % 1000,7 hPa 0,0 l/m 0 min 0 min 0 W/m 9,7 km/h (2 Bft) 97,83 %
09.05.2019 22:44 10,9 C 10,0 C 9,4 C 95 % 1000,7 hPa 0,0 l/m 0 min 0 min 0 W/m 6,4 km/h (2 Bft) 100,00 %
09.05.2019 22:46 10,9 C 10,0 C 9,4 C 95 % 1000,7 hPa 0,0 l/m 0 min 0 min 0 W/m 9,7 km/h (2 Bft) 97,87 %
09.05.2019 22:48 10,9 C 10,0 C 9,4 C 95 % 1000,6 hPa 0,0 l/m 0 min 0 min 0 W/m 9,7 km/h (2 Bft) 97,87 %
09.05.2019 22:50 10,9 C 10,0 C 9,4 C 95 % 1000,7 hPa 0,0 l/m 0 min 0 min 0 W/m 3,2 km/h (1 Bft) 97,87 %
09.05.2019 22:52 10,9 C 10,0 C 9,4 C 95 % 1000,8 hPa 0,0 l/m 0 min 0 min 0 W/m 12,9 km/h (3 Bft) 97,83 %
09.05.2019 22:54 10,9 C 10,0 C 9,4 C 95 % 1000,7 hPa 0,0 l/m 0 min 0 min 0 W/m 9,7 km/h (2 Bft) 100,00 %
09.05.2019 22:56 10,9 C 10,0 C 9,4 C 95 % 1000,7 hPa 0,0 l/m 0 min 0 min 0 W/m 6,4 km/h (2 Bft) 97,87 %
09.05.2019 22:58 10,9 C 10,0 C 9,4 C 95 % 1000,8 hPa 0,0 l/m 0 min 0 min 0 W/m 16,1 km/h (3 Bft) 93,62 %
09.05.2019 23:00 10,9 C 10,0 C 9,4 C 95 % 1000,8 hPa 0,0 l/m 0 min 0 min 0 W/m 6,4 km/h (2 Bft) 100,00 %
09.05.2019 23:02 10,9 C 10,0 C 9,4 C 95 % 1000,9 hPa 0,0 l/m 0 min 0 min 0 W/m 9,7 km/h (2 Bft) 97,87 %
09.05.2019 23:04 10,9 C 10,0 C 9,4 C 95 % 1000,8 hPa 0,0 l/m 0 min 0 min 0 W/m 6,4 km/h (2 Bft) 100,00 %
09.05.2019 23:06 10,9 C 10,0 C 9,4 C 95 % 1000,9 hPa 0,0 l/m 0 min 0 min 0 W/m 9,7 km/h (2 Bft) 97,87 %
09.05.2019 23:08 10,9 C 10,0 C 9,4 C 95 % 1000,9 hPa 0,0 l/m 0 min 0 min 0 W/m 9,7 km/h (2 Bft) 97,87 %
09.05.2019 23:10 10,9 C 10,0 C 9,4 C 95 % 1001,0 hPa 0,0 l/m 0 min 0 min 0 W/m 12,9 km/h (3 Bft) 97,87 %
09.05.2019 23:12 10,9 C 10,0 C 9,4 C 95 % 1001,0 hPa 0,0 l/m 0 min 0 min 0 W/m 9,7 km/h (2 Bft) 97,87 %
09.05.2019 23:14 10,8 C 9,4 C 9,4 C 95 % 1001,0 hPa 0,0 l/m 0 min 0 min 0 W/m 6,4 km/h (2 Bft) 97,87 %
09.05.2019 23:16 10,8 C 9,4 C 9,4 C 95 % 1001,0 hPa 0,0 l/m 0 min 0 min 0 W/m 9,7 km/h (2 Bft) 97,83 %
09.05.2019 23:18 10,8 C 9,4 C 9,4 C 95 % 1001,0 hPa 0,0 l/m 0 min 0 min 0 W/m 12,9 km/h (3 Bft) 93,62 %
09.05.2019 23:20 10,8 C 9,4 C 9,4 C 95 % 1001,1 hPa 0,0 l/m 0 min 0 min 0 W/m 9,7 km/h (2 Bft) 97,87 %
09.05.2019 23:22 10,8 C 9,4 C 9,4 C 95 % 1001,1 hPa 0,0 l/m 0 min 0 min 0 W/m 9,7 km/h (2 Bft) 97,87 %
09.05.2019 23:24 10,8 C 9,4 C 9,4 C 95 % 1001,2 hPa 0,0 l/m 0 min 0 min 0 W/m 12,9 km/h (3 Bft) 97,87 %
09.05.2019 23:26 10,8 C 9,4 C 9,4 C 95 % 1001,2 hPa 0,0 l/m 0 min 0 min 0 W/m 12,9 km/h (3 Bft) 97,87 %
09.05.2019 23:28 10,7 C 9,4 C 9,4 C 95 % 1001,2 hPa 0,0 l/m 0 min 0 min 0 W/m 12,9 km/h (3 Bft) 95,65 %
09.05.2019 23:30 10,7 C 9,4 C 9,4 C 95 % 1001,3 hPa 0,0 l/m 0 min 0 min 0 W/m 6,4 km/h (2 Bft) 97,87 %
09.05.2019 23:32 10,7 C 9,4 C 9,4 C 95 % 1001,3 hPa 0,0 l/m 0 min 0 min 0 W/m 9,7 km/h (2 Bft) 97,87 %
09.05.2019 23:34 10,7 C 9,4 C 9,4 C 95 % 1001,2 hPa 0,0 l/m 0 min 0 min 0 W/m 6,4 km/h (2 Bft) 97,87 %
09.05.2019 23:36 10,7 C 9,4 C 9,4 C 95 % 1001,2 hPa 0,0 l/m 0 min 0 min 0 W/m 6,4 km/h (2 Bft) 93,62 %
09.05.2019 23:38 10,7 C 9,4 C 9,4 C 95 % 1001,2 hPa 0,0 l/m 0 min 0 min 0 W/m 3,2 km/h (1 Bft) 97,87 %
09.05.2019 23:40 10,7 C 9,4 C 9,4 C 95 % 1001,3 hPa 0,0 l/m 0 min 0 min 0 W/m 9,7 km/h (2 Bft) 93,48 %
09.05.2019 23:42 10,6 C 9,4 C 9,4 C 96 % 1001,3 hPa 0,0 l/m 0 min 0 min 0 W/m 9,7 km/h (2 Bft) 97,87 %
09.05.2019 23:44 10,6 C 9,4 C 9,4 C 96 % 1001,3 hPa 0,0 l/m 0 min 0 min 0 W/m 6,4 km/h (2 Bft) 97,87 %
09.05.2019 23:46 10,6 C 9,4 C 9,4 C 96 % 1001,3 hPa 0,0 l/m 0 min 0 min 0 W/m 3,2 km/h (1 Bft) 97,87 %
09.05.2019 23:48 10,6 C 9,4 C 9,4 C 96 % 1001,3 hPa 0,0 l/m 0 min 0 min 0 W/m 6,4 km/h (2 Bft) 97,87 %
09.05.2019 23:50 10,6 C 9,4 C 8,9 C 96 % 1001,4 hPa 0,0 l/m 0 min 0 min 0 W/m 6,4 km/h (2 Bft) 97,87 %
09.05.2019 23:52 10,6 C 9,4 C 9,4 C 96 % 1001,4 hPa 0,0 l/m 0 min 0 min 0 W/m 3,2 km/h (1 Bft) 93,48 %
09.05.2019 23:54 10,6 C 9,4 C 9,4 C 96 % 1001,3 hPa 0,0 l/m 0 min 0 min 0 W/m 0,0 km/h (0 Bft) 100,00 %
09.05.2019 23:56 10,6 C 9,4 C 8,9 C 96 % 1001,4 hPa 0,0 l/m 0 min 0 min 0 W/m 0,0 km/h (0 Bft) 100,00 %
09.05.2019 23:58 10,5 C 9,4 C 8,9 C 96 % 1001,5 hPa 0,0 l/m 0 min 0 min 0 W/m 0,0 km/h (0 Bft) 100,00 %
_ Min-Zeit 06:12 05:04 05:04 18:20 06:02 - - - - 07:16 09:54
Minimum _ 7,3 C 6,7 C 6,1 C 63 % 994,3 hPa - - - - 0,0 km/h (0 Bft) 89,36 %
_ Max-Zeit 18:04 12:20 12:20 23:42 23:58 20:38 12:07 11:36 12:22 10:16 00:58
Maximum _ 18,3 C 22,2 C 23,3 C 96 % 1001,5 hPa 0,8 l/m 3 min 2 min 1066 W/m 35,4 km/h
O-SO (5 Bft)
100,00 %
Durchschnitt _ 12,4 C 12,6 C 12,0 C 83 % 996,2 hPa #4,8 l/m #6:28 h #1:26 h 305 W/m 13,8 km/h (3 Bft) 97,44 %
© 2019 W. Hausmann